M I D A S
Marine Information and Data Acquisition System
Tripno 895 of the Zeeleeuw from 2005-05-04 04:48:49 to 2005-05-04 15:22:24
Back to CruiseResearch ActivitiesStationsMapUnderway DataData graphs

EquipmentUnitsComment
TimeDGPSUTC
LatitudeDGPSDM.mWGS84
LongitudeDGPSDM.mWGS84
TemperatureSBE03/SBE38deg celciusITS90
ConductivitySBE21S/mITS90
SalinitySBE21 Practical Salinity Units
ChlorophylAChelsea fluorimeterg/lCalibrated in Aceton
Missing or incorrect values are displayed as -999
Sea surface data collected by the RV Zeeleeuw from 2005-05-04 04:43:54 to 2005-05-04 15:33:31
                                                                                    Next 1000 lines
Time Latitude Longitude Temperature Conductivity Salinity ChlorophylA
2005-05-04 04:44:04 51°13.595 2°56.096 19.9644 0.065967 0.37656 -0.208189
2005-05-04 04:44:09 51°13.596 2°56.093 19.9669 0.065967 0.376554 -0.17448
2005-05-04 04:44:14 51°13.597 2°56.088 19.9157 0.065967 0.376554 -0.17448
2005-05-04 04:44:19 51°13.599 2°56.084 19.9292 0.065967 0.37656 -0.208189
2005-05-04 04:44:25 51°13.6 2°56.078 19.9447 0.065967 0.376554 -0.208189
2005-05-04 04:44:30 51°13.602 2°56.073 19.9715 0.065967 0.37656 -0.208189
2005-05-04 04:44:35 51°13.604 2°56.068 19.9325 0.065967 0.37656 -0.208189
2005-05-04 04:44:40 51°13.605 2°56.062 19.9409 0.065967 0.376566 -0.208189
2005-05-04 04:44:45 51°13.608 2°56.055 19.9445 0.065967 0.376566 -0.208189
2005-05-04 04:44:49 51°13.61 2°56.05 19.9479 0.065967 0.376573 -0.17448
2005-05-04 04:44:55 51°13.612 2°56.043 19.963 0.065967 0.376579 -0.17448
2005-05-04 04:44:59 51°13.614 2°56.037 19.945 0.065967 0.376586 -0.208189
2005-05-04 04:45:05 51°13.616 2°56.03 19.9632 0.065967 0.376586 -0.208189
2005-05-04 04:45:10 51°13.618 2°56.023 19.9576 0.065967 0.376592 -0.208189
2005-05-04 04:45:15 51°13.621 2°56.016 19.9665 0.065967 0.376592 -0.17448
2005-05-04 04:45:19 51°13.623 2°56.009 19.9746 0.065967 0.376599 -0.17448
2005-05-04 04:45:25 51°13.625 2°56.001 19.977 0.065967 0.376592 -0.208189
2005-05-04 04:45:29 51°13.627 2°55.994 19.977 0.065967 0.376592 -0.208189
2005-05-04 04:45:35 51°13.63 2°55.985 19.9824 0.065967 0.376592 -0.208189
2005-05-04 04:45:39 51°13.632 2°55.978 19.9701 0.065967 0.376592 -0.17448
2005-05-04 04:45:45 51°13.635 2°55.97 19.9755 0.065967 0.376599 -0.17448
2005-05-04 04:45:49 51°13.638 2°55.962 19.9893 0.065967 0.376592 -0.17448
2005-05-04 04:45:55 51°13.641 2°55.954 20.0085 0.065967 0.376599 -0.208189
2005-05-04 04:46:00 51°13.645 2°55.946 20.0152 0.065967 0.376592 -0.14077
2005-05-04 04:46:04 51°13.648 2°55.939 20.0133 0.065967 0.376592 -0.14077
2005-05-04 04:46:09 51°13.652 2°55.931 20.0081 0.065967 0.376605 -0.17448
2005-05-04 04:46:15 51°13.656 2°55.923 19.9987 0.065967 0.376605 -0.17448
2005-05-04 04:46:19 51°13.659 2°55.916 19.9994 0.065967 0.376605 -0.17448
2005-05-04 04:46:25 51°13.663 2°55.908 19.9821 0.065967 0.376611 -0.208189
2005-05-04 04:46:29 51°13.667 2°55.9 19.9732 0.065967 0.376618 -0.17448
2005-05-04 04:46:35 51°13.671 2°55.892 19.9893 0.065967 0.376618 -0.17448
2005-05-04 04:46:39 51°13.675 2°55.885 19.9937 0.065967 0.376618 -0.208189
2005-05-04 04:46:45 51°13.679 2°55.876 19.9908 0.065967 0.376618 -0.14077
2005-05-04 04:46:49 51°13.682 2°55.87 19.9901 0.065967 0.376624 -0.17448
2005-05-04 04:46:55 51°13.685 2°55.862 19.9902 0.065967 0.376624 -0.17448
2005-05-04 04:46:59 51°13.689 2°55.855 19.9871 0.065967 0.376624 -0.17448
2005-05-04 04:47:05 51°13.692 2°55.846 19.9743 0.065967 0.376624 -0.17448
2005-05-04 04:47:09 51°13.695 2°55.839 19.9619 0.065967 0.376618 -0.208189
2005-05-04 04:47:15 51°13.698 2°55.831 19.9597 0.065967 0.376624 -0.17448
2005-05-04 04:47:19 51°13.7 2°55.824 19.9529 0.065967 0.376624 -0.17448
2005-05-04 04:47:25 51°13.703 2°55.815 19.9544 0.065967 0.376631 -0.17448
2005-05-04 04:47:29 51°13.705 2°55.808 19.9572 0.065967 0.376637 -0.208189
2005-05-04 04:47:35 51°13.708 2°55.8 19.9576 0.065967 0.376637 -0.208189
2005-05-04 04:47:39 51°13.71 2°55.794 19.958 0.065967 0.376637 -0.17448
2005-05-04 04:47:45 51°13.712 2°55.784 19.9585 0.065967 0.376637 -0.208189
2005-05-04 04:47:49 51°13.714 2°55.776 19.9568 0.065967 0.376644 -0.208189
2005-05-04 04:47:55 51°13.716 2°55.767 19.9877 0.065967 0.376644 -0.17448
2005-05-04 04:47:59 51°13.717 2°55.76 19.9728 0.065967 0.376644 -0.17448
2005-05-04 04:48:05 51°13.719 2°55.751 19.9841 0.065967 0.376644 -0.17448
2005-05-04 04:48:09 51°13.721 2°55.744 19.9765 0.065967 0.376644 -0.208189
2005-05-04 04:48:14 51°13.721 2°55.738 20.0298 0.065967 0.376644 -0.17448
2005-05-04 04:48:19 51°13.722 2°55.734 20.0479 0.065967 0.376631 -0.17448
2005-05-04 04:48:24 51°13.723 2°55.731 20.1141 0.065863 0.376011 -0.17448
2005-05-04 04:48:29 51°13.723 2°55.731 20.1187 0.065967 0.376618 -0.17448
2005-05-04 04:48:34 51°13.725 2°55.731 20.1301 0.065967 0.376618 -0.17448
2005-05-04 04:48:39 51°13.725 2°55.733 20.0576 0.065967 0.376618 -0.17448
2005-05-04 04:48:44 51°13.727 2°55.735 19.8922 0.065967 0.376624 -0.208189
2005-05-04 04:48:49 51°13.729 2°55.737 19.784 0.065967 0.376637 -0.208189
2005-05-04 04:48:54 51°13.73 2°55.737 19.9435 0.065967 0.376656 -0.14077
2005-05-04 04:48:59 51°13.731 2°55.737 19.9546 0.065967 0.376656 -0.17448
2005-05-04 04:49:05 51°13.731 2°55.736 19.9424 0.065967 0.376656 -0.17448
2005-05-04 04:49:09 51°13.732 2°55.735 19.9031 0.065967 0.37665 -0.17448
2005-05-04 04:49:14 51°13.731 2°55.734 19.9145 0.065967 0.376637 -0.17448
2005-05-04 04:49:19 51°13.731 2°55.732 19.9305 0.065967 0.376644 -0.208189
2005-05-04 04:49:23 51°13.729 2°55.729 19.9875 0.065863 0.376037 -0.208189
2005-05-04 04:49:29 51°13.727 2°55.726 19.9975 0.065967 0.376663 -0.17448
2005-05-04 04:49:35 51°13.725 2°55.724 20.0021 0.065967 0.376663 -0.17448
2005-05-04 04:49:39 51°13.724 2°55.722 20.0307 0.065967 0.376669 -0.17448
2005-05-04 04:49:44 51°13.723 2°55.72 20.0712 0.065967 0.376682 -0.17448
2005-05-04 04:49:49 51°13.723 2°55.72 20.062 0.065967 0.376682 -0.17448
2005-05-04 04:49:55 51°13.725 2°55.719 20.0938 0.065863 0.376075 -0.208189
2005-05-04 04:49:59 51°13.726 2°55.718 20.0825 0.065863 0.376063 -0.14077
2005-05-04 04:50:05 51°13.729 2°55.717 20.0636 0.065863 0.376063 -0.14077
2005-05-04 04:50:09 51°13.732 2°55.715 20.0495 0.065863 0.376063 -0.14077
2005-05-04 04:50:15 51°13.735 2°55.712 20.0656 0.065967 0.376663 -0.208189
2005-05-04 04:50:19 51°13.738 2°55.71 20.0683 0.065863 0.376043 -0.17448
2005-05-04 04:50:25 51°13.742 2°55.705 20.0169 0.065863 0.376043 -0.17448
2005-05-04 04:50:29 51°13.745 2°55.702 20.041 0.065967 0.37665 -0.208189
2005-05-04 04:50:33 51°13.75 2°55.697 19.9193 0.065967 0.37665 -0.208189
2005-05-04 04:50:39 51°13.756 2°55.69 19.8286 0.065863 0.376037 -0.208189
2005-05-04 04:50:44 51°13.764 2°55.683 19.7945 0.065863 0.376037 -0.17448
2005-05-04 04:50:49 51°13.772 2°55.677 19.7733 0.065863 0.37605 -0.17448
2005-05-04 04:50:54 51°13.779 2°55.671 19.6913 0.065967 0.376689 -0.208189
2005-05-04 04:50:59 51°13.789 2°55.664 19.6635 0.065863 0.376082 -0.17448
2005-05-04 04:51:04 51°13.798 2°55.657 19.7844 0.065863 0.376082 -0.17448
2005-05-04 04:51:09 51°13.807 2°55.652 19.7722 0.065863 0.376095 -0.17448
2005-05-04 04:51:14 51°13.818 2°55.643 19.7435 0.065967 0.376714 -0.208189
2005-05-04 04:51:19 51°13.827 2°55.637 19.7431 0.065863 0.376107 -0.17448
2005-05-04 04:51:24 51°13.839 2°55.629 19.7809 0.065863 0.376095 -0.208189
2005-05-04 04:51:29 51°13.85 2°55.622 19.8695 0.065863 0.376088 -0.208189
2005-05-04 04:51:34 51°13.861 2°55.613 19.8878 0.065863 0.376088 -0.208189
2005-05-04 04:51:39 51°13.871 2°55.606 19.9038 0.065967 0.376695 -0.208189
2005-05-04 04:51:44 51°13.884 2°55.596 19.8632 0.065863 0.376088 -0.17448
2005-05-04 04:51:49 51°13.895 2°55.588 19.8728 0.065863 0.376095 -0.17448
2005-05-04 04:51:54 51°13.906 2°55.579 19.7801 0.065863 0.376101 -0.14077
2005-05-04 04:51:59 51°13.917 2°55.571 19.7733 0.065863 0.376114 -0.17448
2005-05-04 04:52:04 51°13.93 2°55.562 19.7753 0.065863 0.376114 -0.17448
2005-05-04 04:52:09 51°13.941 2°55.554 19.7826 0.065863 0.376127 -0.208189
2005-05-04 04:52:14 51°13.954 2°55.544 19.7908 0.065863 0.376133 -0.17448
2005-05-04 04:52:19 51°13.965 2°55.536 19.7104 0.065863 0.37614 -0.17448
2005-05-04 04:52:24 51°13.978 2°55.526 19.7995 0.065967 0.376753 -0.17448
2005-05-04 04:52:29 51°13.99 2°55.518 19.8088 0.065863 0.376146 -0.17448
2005-05-04 04:52:34 51°14.002 2°55.509 19.8175 0.065863 0.376146 -0.17448
2005-05-04 04:52:39 51°14.015 2°55.501 19.8209 0.065863 0.37614 -0.17448
2005-05-04 04:52:43 51°14.023 2°55.495 19.8278 0.065863 0.37614 -0.17448
2005-05-04 04:52:49 51°14.039 2°55.484 19.8284 0.065863 0.376146 -0.17448
2005-05-04 04:52:54 51°14.05 2°55.476 19.8304 0.065863 0.37614 -0.14077
2005-05-04 04:52:59 51°14.063 2°55.466 19.8254 0.065863 0.376133 -0.14077
2005-05-04 04:53:04 51°14.076 2°55.457 19.8456 0.065863 0.376133 -0.14077
2005-05-04 04:53:09 51°14.086 2°55.449 19.8496 0.065863 0.376133 -0.208189
2005-05-04 04:53:14 51°14.098 2°55.44 19.8409 0.065863 0.37614 -0.17448
2005-05-04 04:53:19 51°14.11 2°55.431 19.9196 0.065863 0.376133 -0.208189
2005-05-04 04:53:24 51°14.124 2°55.42 19.8886 0.065863 0.37614 -0.17448
2005-05-04 04:53:29 51°14.136 2°55.41 19.8878 0.065863 0.376146 -0.17448
2005-05-04 04:53:34 51°14.148 2°55.401 19.8564 0.065863 0.376146 -0.17448
2005-05-04 04:53:39 51°14.158 2°55.392 19.9121 0.065863 0.376152 -0.17448
2005-05-04 04:53:44 51°14.171 2°55.38 19.8918 0.065863 0.376152 -0.14077
2005-05-04 04:53:49 51°14.183 2°55.37 19.9279 0.065863 0.376159 -0.17448
2005-05-04 04:53:54 51°14.194 2°55.359 19.9789 0.065863 0.376165 -0.14077
2005-05-04 04:53:59 51°14.205 2°55.348 20.0036 0.065863 0.376159 -0.208189
2005-05-04 04:54:04 51°14.216 2°55.336 20.0096 0.065863 0.376159 -0.208189
2005-05-04 04:54:09 51°14.227 2°55.323 20.0327 0.065863 0.376159 -0.17448
2005-05-04 04:54:14 51°14.237 2°55.309 20.0272 0.065863 0.376165 -0.17448
2005-05-04 04:54:19 51°14.245 2°55.296 20.0191 0.065863 0.376165 -0.208189
2005-05-04 04:54:24 51°14.255 2°55.279 19.996 0.065863 0.376165 -0.17448
2005-05-04 04:54:29 51°14.263 2°55.264 19.8584 0.065863 0.376172 -0.14077
2005-05-04 04:54:34 51°14.273 2°55.245 19.9092 0.065863 0.376172 -0.14077
2005-05-04 04:54:39 51°14.28 2°55.23 19.9041 0.065863 0.376165 -0.17448
2005-05-04 04:54:44 51°14.289 2°55.209 19.8162 0.065863 0.376172 -0.17448
2005-05-04 04:54:49 51°14.298 2°55.19 19.7675 0.065863 0.376165 -0.17448
2005-05-04 04:54:53 51°14.305 2°55.175 19.6697 0.065863 0.376172 -0.14077
2005-05-04 04:54:58 51°14.314 2°55.155 19.776 0.065863 0.376165 -0.17448
2005-05-04 04:55:04 51°14.326 2°55.133 19.8006 0.065863 0.376165 -0.17448
2005-05-04 04:55:09 51°14.336 2°55.113 19.8005 0.065863 0.376165 -0.14077
2005-05-04 04:55:13 51°14.344 2°55.098 19.798 0.065863 0.376165 -0.208189
2005-05-04 04:55:19 51°14.355 2°55.076 19.7957 0.065863 0.376172 -0.208189
2005-05-04 04:55:24 51°14.366 2°55.053 19.7955 0.065863 0.376178 -0.17448
2005-05-04 04:55:29 51°14.376 2°55.033 19.867 0.065863 0.376178 -0.17448
2005-05-04 04:55:33 51°14.385 2°55.016 19.8364 0.065863 0.376178 -0.17448
2005-05-04 04:55:39 51°14.396 2°54.993 19.933 0.065863 0.376185 -0.208189
2005-05-04 04:55:43 51°14.404 2°54.976 19.9486 0.065863 0.376185 -0.14077
2005-05-04 04:55:49 51°14.418 2°54.947 19.8953 0.065863 0.376191 -0.17448
2005-05-04 04:55:54 51°14.427 2°54.923 19.8 0.065863 0.376197 -0.14077
2005-05-04 04:55:59 51°14.436 2°54.902 19.7661 0.065863 0.376197 -0.208189
2005-05-04 04:56:04 51°14.446 2°54.878 19.8201 0.065863 0.376197 -0.208189
2005-05-04 04:56:09 51°14.457 2°54.852 19.8615 0.065863 0.376191 -0.208189
2005-05-04 04:56:14 51°14.467 2°54.827 19.8629 0.065863 0.376191 -0.17448
2005-05-04 04:56:18 51°14.475 2°54.808 19.8814 0.065863 0.376197 -0.208189
2005-05-04 04:56:24 51°14.487 2°54.778 19.8887 0.065863 0.376197 -0.14077
2005-05-04 04:56:29 51°14.496 2°54.754 19.8347 0.065863 0.37621 -0.17448
2005-05-04 04:56:34 51°14.506 2°54.729 19.9167 0.065863 0.37621 -0.17448
2005-05-04 04:56:39 51°14.514 2°54.707 19.8921 0.065863 0.37621 -0.208189
2005-05-04 04:56:43 51°14.522 2°54.686 19.8509 0.065863 0.376223 -0.14077
2005-05-04 04:56:49 51°14.533 2°54.655 19.7989 0.065863 0.376223 -0.17448
2005-05-04 04:56:54 51°14.544 2°54.627 19.7935 0.065863 0.376223 -0.17448
2005-05-04 04:56:59 51°14.552 2°54.604 19.8498 0.065863 0.376223 -0.17448
2005-05-04 04:57:04 51°14.562 2°54.579 19.8309 0.065863 0.376223 -0.17448
2005-05-04 04:57:09 51°14.572 2°54.554 19.8461 0.065863 0.37623 -0.17448
2005-05-04 04:57:13 51°14.58 2°54.531 19.866 0.065863 0.376223 -0.17448
2005-05-04 04:57:19 51°14.592 2°54.5 19.8406 0.065863 0.37623 -0.17448
2005-05-04 04:57:24 51°14.602 2°54.474 19.8857 0.065863 0.37623 -0.17448
2005-05-04 04:57:29 51°14.61 2°54.451 19.8261 0.065863 0.376236 -0.17448
2005-05-04 04:57:33 51°14.619 2°54.428 19.8961 0.065863 0.376236 -0.17448
2005-05-04 04:57:39 51°14.629 2°54.4 19.8668 0.065863 0.376236 -0.17448
2005-05-04 04:57:44 51°14.64 2°54.371 19.8882 0.065863 0.376242 -0.17448
2005-05-04 04:57:49 51°14.649 2°54.348 19.892 0.065863 0.376242 -0.208189
2005-05-04 04:57:54 51°14.659 2°54.322 19.8363 0.065863 0.376242 -0.14077
2005-05-04 04:57:59 51°14.669 2°54.296 19.8366 0.065863 0.376242 -0.17448
2005-05-04 04:58:04 51°14.679 2°54.268 19.8381 0.065863 0.376242 -0.17448
2005-05-04 04:58:09 51°14.689 2°54.243 19.8659 0.065863 0.376249 -0.17448
2005-05-04 04:58:14 51°14.698 2°54.219 19.8636 0.065863 0.376249 -0.208189
2005-05-04 04:58:19 51°14.708 2°54.194 19.8624 0.065863 0.376255 -0.14077
2005-05-04 04:58:23 51°14.716 2°54.171 19.8202 0.065863 0.376255 -0.17448
2005-05-04 04:58:29 51°14.728 2°54.14 19.7912 0.065863 0.376262 -0.17448
2005-05-04 04:58:34 51°14.736 2°54.117 19.7506 0.065863 0.376262 -0.17448
2005-05-04 04:58:39 51°14.746 2°54.091 19.8033 0.065863 0.376262 -0.14077
2005-05-04 04:58:44 51°14.757 2°54.063 19.836 0.065863 0.376255 -0.17448
2005-05-04 04:58:49 51°14.766 2°54.038 19.8337 0.065863 0.376262 -0.17448
2005-05-04 04:58:54 51°14.776 2°54.015 19.8475 0.065863 0.376262 -0.14077
2005-05-04 04:58:59 51°14.785 2°53.989 19.8672 0.065863 0.376275 -0.17448
2005-05-04 04:59:04 51°14.796 2°53.961 19.875 0.065863 0.376275 -0.17448
2005-05-04 04:59:09 51°14.805 2°53.936 19.8144 0.065863 0.376275 -0.208189
2005-05-04 04:59:14 51°14.815 2°53.91 19.7996 0.065863 0.376275 -0.17448
2005-05-04 04:59:19 51°14.824 2°53.887 19.8241 0.065863 0.376281 -0.208189
2005-05-04 04:59:24 51°14.834 2°53.859 19.7806 0.065863 0.376281 -0.17448
2005-05-04 04:59:29 51°14.844 2°53.834 19.8065 0.065863 0.376281 -0.208189
2005-05-04 04:59:33 51°14.851 2°53.814 19.8242 0.065863 0.376281 -0.208189
2005-05-04 04:59:39 51°14.862 2°53.786 19.8636 0.065863 0.376275 -0.17448
2005-05-04 04:59:45 51°14.874 2°53.755 19.8172 0.065863 0.376281 -0.17448
2005-05-04 04:59:49 51°14.883 2°53.732 19.7995 0.065863 0.376281 -0.208189
2005-05-04 04:59:54 51°14.891 2°53.709 19.8064 0.065863 0.376287 -0.14077
2005-05-04 04:59:59 51°14.901 2°53.684 19.8513 0.065863 0.376294 -0.208189
2005-05-04 05:00:04 51°14.912 2°53.656 19.8588 0.065863 0.376294 -0.208189
2005-05-04 05:00:09 51°14.92 2°53.63 19.807 0.065863 0.3763 -0.208189
2005-05-04 05:00:14 51°14.928 2°53.603 19.864 0.065863 0.376313 -0.17448
2005-05-04 05:00:19 51°14.935 2°53.578 19.8122 0.065863 0.376307 -0.208189
2005-05-04 05:00:25 51°14.944 2°53.545 19.8145 0.065863 0.3763 -0.14077
2005-05-04 05:00:29 51°14.95 2°53.52 19.7624 0.065863 0.3763 -0.14077
2005-05-04 05:00:34 51°14.956 2°53.495 19.7718 0.065863 0.3763 -0.14077
2005-05-04 05:00:39 51°14.963 2°53.466 19.8035 0.065863 0.376294 -0.17448
2005-05-04 05:00:44 51°14.971 2°53.436 19.7775 0.065863 0.376294 -0.14077
2005-05-04 05:00:49 51°14.978 2°53.408 19.7773 0.065863 0.376307 -0.17448
2005-05-04 05:00:54 51°14.985 2°53.38 19.8161 0.065863 0.376307 -0.17448
2005-05-04 05:00:59 51°14.991 2°53.355 19.7998 0.065863 0.376313 -0.208189
2005-05-04 05:01:04 51°14.999 2°53.324 19.7576 0.065863 0.376313 -0.208189
2005-05-04 05:01:09 51°15.005 2°53.298 19.82 0.065863 0.376326 -0.14077
2005-05-04 05:01:14 51°15.012 2°53.27 19.792 0.065863 0.376332 -0.17448
2005-05-04 05:01:19 51°15.019 2°53.242 19.77 0.065863 0.376339 -0.208189
2005-05-04 05:01:24 51°15.026 2°53.211 19.8125 0.065863 0.376332 -0.17448
2005-05-04 05:01:29 51°15.033 2°53.183 19.7809 0.065863 0.376332 -0.14077
2005-05-04 05:01:34 51°15.039 2°53.158 19.8098 0.065863 0.376332 -0.14077
2005-05-04 05:01:39 51°15.046 2°53.13 19.814 0.065863 0.376332 -0.17448
2005-05-04 05:01:44 51°15.054 2°53.099 19.8278 0.065863 0.376332 -0.14077
2005-05-04 05:01:49 51°15.061 2°53.071 19.7681 0.065863 0.376339 -0.208189
2005-05-04 05:01:54 51°15.067 2°53.042 19.7867 0.065863 0.376339 -0.14077
2005-05-04 05:01:59 51°15.074 2°53.014 19.7676 0.065863 0.376345 -0.14077
2005-05-04 05:02:05 51°15.081 2°52.983 19.7616 0.065863 0.376345 -0.14077
2005-05-04 05:02:09 51°15.088 2°52.958 19.7768 0.065863 0.376345 -0.17448
2005-05-04 05:02:14 51°15.094 2°52.933 19.7809 0.065863 0.376352 -0.17448
2005-05-04 05:02:19 51°15.101 2°52.905 19.825 0.065863 0.376352 -0.17448
2005-05-04 05:02:24 51°15.109 2°52.874 19.8144 0.065863 0.376358 -0.208189
2005-05-04 05:02:29 51°15.116 2°52.846 19.8048 0.065863 0.376365 -0.17448
2005-05-04 05:02:34 51°15.123 2°52.817 19.7842 0.065863 0.376365 -0.17448
2005-05-04 05:02:39 51°15.129 2°52.792 19.8155 0.065864 0.376371 -0.17448
2005-05-04 05:02:45 51°15.137 2°52.758 19.7935 0.065864 0.376378 -0.17448
2005-05-04 05:02:49 51°15.144 2°52.732 19.7942 0.065864 0.376378 -0.14077
2005-05-04 05:02:55 51°15.151 2°52.701 19.7689 0.065864 0.376384 -0.17448
2005-05-04 05:02:59 51°15.157 2°52.678 19.7973 0.065864 0.37639 -0.17448
2005-05-04 05:03:03 51°15.163 2°52.652 19.7524 0.065864 0.37639 -0.17448
2005-05-04 05:03:09 51°15.171 2°52.621 19.6956 0.065864 0.37639 -0.208189
2005-05-04 05:03:13 51°15.178 2°52.596 19.7276 0.065864 0.376384 -0.17448
2005-05-04 05:03:19 51°15.187 2°52.566 19.7648 0.065864 0.376384 -0.14077
2005-05-04 05:03:24 51°15.197 2°52.536 19.754 0.065864 0.376384 -0.208189
2005-05-04 05:03:29 51°15.206 2°52.51 19.7798 0.065864 0.376384 -0.17448
2005-05-04 05:03:35 51°15.216 2°52.481 19.7772 0.065864 0.376384 -0.17448
2005-05-04 05:03:39 51°15.224 2°52.461 19.7917 0.065864 0.376403 -0.17448
2005-05-04 05:03:44 51°15.235 2°52.433 19.8081 0.065864 0.376403 -0.17448
2005-05-04 05:03:49 51°15.244 2°52.41 19.8029 0.065864 0.37641 -0.17448
2005-05-04 05:03:54 51°15.255 2°52.382 19.8096 0.065864 0.376423 -0.14077
2005-05-04 05:03:59 51°15.264 2°52.359 19.7309 0.065864 0.376423 -0.17448
2005-05-04 05:04:04 51°15.275 2°52.33 19.7961 0.065864 0.376423 -0.17448
2005-05-04 05:04:09 51°15.284 2°52.307 19.7878 0.065864 0.376429 -0.17448
2005-05-04 05:04:14 51°15.294 2°52.281 19.7528 0.065864 0.376429 -0.17448
2005-05-04 05:04:19 51°15.304 2°52.256 19.7853 0.065864 0.376423 -0.17448
2005-05-04 05:04:24 51°15.314 2°52.23 19.7868 0.065864 0.376429 -0.14077
2005-05-04 05:04:29 51°15.322 2°52.207 19.7838 0.065864 0.376435 -0.17448
2005-05-04 05:04:34 51°15.333 2°52.179 19.7455 0.065864 0.376435 -0.17448
2005-05-04 05:04:39 51°15.341 2°52.156 19.7769 0.065864 0.376435 -0.17448
2005-05-04 05:04:44 51°15.352 2°52.128 19.7846 0.065864 0.376448 -0.17448
2005-05-04 05:04:49 51°15.361 2°52.105 19.7343 0.065864 0.376442 -0.14077
2005-05-04 05:04:54 51°15.371 2°52.08 19.7733 0.065864 0.376448 -0.17448
2005-05-04 05:04:59 51°15.381 2°52.055 19.7679 0.065864 0.376455 -0.17448
2005-05-04 05:05:05 51°15.393 2°52.024 19.7713 0.065864 0.376455 -0.17448
2005-05-04 05:05:09 51°15.402 2°52.002 19.7403 0.065864 0.376455 -0.17448
2005-05-04 05:05:14 51°15.412 2°51.976 19.7476 0.065864 0.376468 -0.17448
2005-05-04 05:05:19 51°15.421 2°51.953 19.7607 0.065864 0.376461 -0.14077
2005-05-04 05:05:23 51°15.429 2°51.93 19.7597 0.065864 0.376468 -0.14077
2005-05-04 05:05:29 51°15.441 2°51.899 19.7652 0.065864 0.376474 -0.208189
2005-05-04 05:05:33 51°15.449 2°51.879 19.7355 0.065864 0.376474 -0.208189
2005-05-04 05:05:39 51°15.46 2°51.851 19.7731 0.065864 0.376468 -0.17448
2005-05-04 05:05:44 51°15.47 2°51.825 19.7512 0.065864 0.376474 -0.17448
2005-05-04 05:05:49 51°15.479 2°51.8 19.7749 0.065864 0.376474 -0.17448
2005-05-04 05:05:54 51°15.49 2°51.772 19.7839 0.065864 0.376474 -0.14077
2005-05-04 05:05:59 51°15.499 2°51.749 19.764 0.065864 0.376487 -0.17448
2005-05-04 05:06:04 51°15.51 2°51.721 19.7957 0.065864 0.376487 -0.17448
2005-05-04 05:06:09 51°15.519 2°51.698 19.7227 0.065864 0.376481 -0.17448
2005-05-04 05:06:14 51°15.53 2°51.67 19.7889 0.065864 0.376487 -0.17448
2005-05-04 05:06:19 51°15.539 2°51.647 19.7693 0.065864 0.376493 -0.14077
2005-05-04 05:06:24 51°15.55 2°51.619 19.7489 0.065864 0.3765 -0.17448
2005-05-04 05:06:29 51°15.558 2°51.596 19.7775 0.065864 0.3765 -0.14077
2005-05-04 05:06:33 51°15.567 2°51.573 19.7775 0.065864 0.3765 -0.14077
2005-05-04 05:06:39 51°15.578 2°51.546 19.7688 0.065864 0.376506 -0.17448
2005-05-04 05:06:44 51°15.589 2°51.517 19.7839 0.065864 0.376506 -0.17448
2005-05-04 05:06:49 51°15.599 2°51.492 19.7636 0.065864 0.376513 -0.17448
2005-05-04 05:06:54 51°15.607 2°51.469 19.7271 0.065864 0.376513 -0.17448
2005-05-04 05:06:59 51°15.617 2°51.444 19.7477 0.065864 0.376513 -0.208189
2005-05-04 05:07:04 51°15.628 2°51.416 19.7555 0.065864 0.376513 -0.208189
2005-05-04 05:07:09 51°15.638 2°51.391 19.7529 0.065864 0.376513 -0.17448
2005-05-04 05:07:13 51°15.646 2°51.371 19.778 0.065864 0.376513 -0.17448
2005-05-04 05:07:19 51°15.657 2°51.343 19.7221 0.065864 0.376519 -0.17448
2005-05-04 05:07:24 51°15.667 2°51.318 19.7791 0.065864 0.376526 -0.14077
2005-05-04 05:07:29 51°15.678 2°51.29 19.7574 0.065864 0.376526 -0.208189
2005-05-04 05:07:34 51°15.688 2°51.265 19.7783 0.065864 0.376526 -0.208189
2005-05-04 05:07:39 51°15.697 2°51.243 19.7523 0.065864 0.376539 -0.208189
2005-05-04 05:07:44 51°15.707 2°51.217 19.7505 0.065864 0.376532 -0.17448
2005-05-04 05:07:49 51°15.718 2°51.189 19.7523 0.065864 0.376539 -0.17448
2005-05-04 05:07:54 51°15.727 2°51.166 19.7638 0.065864 0.376545 -0.17448
2005-05-04 05:07:59 51°15.737 2°51.141 19.7541 0.065864 0.376545 -0.14077
2005-05-04 05:08:04 51°15.748 2°51.114 19.7676 0.065864 0.376545 -0.14077
2005-05-04 05:08:09 51°15.758 2°51.088 19.7419 0.065864 0.376545 -0.14077
2005-05-04 05:08:14 51°15.768 2°51.063 19.7852 0.065864 0.376551 -0.14077
2005-05-04 05:08:19 51°15.777 2°51.041 19.751 0.065864 0.376551 -0.17448
2005-05-04 05:08:25 51°15.788 2°51.011 19.752 0.065864 0.376558 -0.17448
2005-05-04 05:08:29 51°15.796 2°50.99 19.7669 0.065864 0.376558 -0.17448
2005-05-04 05:08:33 51°15.805 2°50.968 19.4554 0.065864 0.376558 -0.17448
2005-05-04 05:08:39 51°15.816 2°50.94 19.4711 0.065864 0.376564 -0.17448
2005-05-04 05:08:44 51°15.826 2°50.912 19.466 0.065864 0.376558 -0.14077
2005-05-04 05:08:49 51°15.835 2°50.889 19.4697 0.065864 0.376571 -0.17448
2005-05-04 05:08:54 51°15.844 2°50.864 19.4936 0.065864 0.376571 -0.14077
2005-05-04 05:08:59 51°15.854 2°50.839 19.4963 0.065864 0.376571 -0.14077
2005-05-04 05:09:04 51°15.865 2°50.811 19.5081 0.065864 0.376571 -0.14077
2005-05-04 05:09:09 51°15.873 2°50.789 19.521 0.065864 0.376571 -0.17448
2005-05-04 05:09:14 51°15.884 2°50.763 19.5218 0.065864 0.376577 -0.14077
2005-05-04 05:09:19 51°15.894 2°50.737 19.5295 0.065864 0.376584 -0.17448
2005-05-04 05:09:24 51°15.904 2°50.71 19.5351 0.065864 0.376584 -0.17448
2005-05-04 05:09:29 51°15.914 2°50.685 19.5388 0.065864 0.37659 -0.17448
2005-05-04 05:09:34 51°15.924 2°50.66 19.5398 0.065864 0.37659 -0.17448
2005-05-04 05:09:39 51°15.932 2°50.637 19.5424 0.065864 0.376584 -0.17448
2005-05-04 05:09:43 51°15.94 2°50.617 19.5436 0.065864 0.376597 -0.17448
2005-05-04 05:09:49 51°15.952 2°50.585 19.5479 0.065864 0.37659 -0.14077
2005-05-04 05:09:55 51°15.963 2°50.557 19.5498 0.065864 0.376597 -0.14077
2005-05-04 05:09:59 51°15.97 2°50.537 19.5533 0.065864 0.376597 -0.17448
2005-05-04 05:10:05 51°15.982 2°50.508 19.5543 0.065864 0.376597 -0.17448
2005-05-04 05:10:09 51°15.99 2°50.485 19.5562 0.065864 0.376597 -0.14077
2005-05-04 05:10:15 51°16.001 2°50.458 19.5601 0.065864 0.376603 -0.17448
2005-05-04 05:10:19 51°16.009 2°50.436 19.5593 0.065864 0.376603 -0.14077
2005-05-04 05:10:24 51°16.018 2°50.414 19.5626 0.065864 0.376609 -0.14077
2005-05-04 05:10:29 51°16.028 2°50.386 19.5638 0.065864 0.376609 -0.17448
2005-05-04 05:10:34 51°16.036 2°50.364 19.5648 0.065864 0.376609 -0.17448
2005-05-04 05:10:39 51°16.047 2°50.337 19.5657 0.065864 0.376616 -0.14077
2005-05-04 05:10:44 51°16.056 2°50.312 19.5697 0.065864 0.376616 -0.14077
2005-05-04 05:10:49 51°16.066 2°50.287 19.5702 0.065864 0.376629 -0.17448
2005-05-04 05:10:54 51°16.075 2°50.263 19.5717 0.065864 0.376622 -0.208189
2005-05-04 05:10:59 51°16.083 2°50.241 19.5725 0.065864 0.376629 -0.17448
2005-05-04 05:11:04 51°16.094 2°50.213 19.5744 0.065864 0.376629 -0.17448
2005-05-04 05:11:09 51°16.104 2°50.188 19.5756 0.065864 0.376629 -0.17448
2005-05-04 05:11:14 51°16.113 2°50.163 19.5771 0.06576 0.376021 -0.17448
2005-05-04 05:11:19 51°16.122 2°50.141 19.5825 0.065864 0.376635 -0.17448
2005-05-04 05:11:25 51°16.134 2°50.111 19.5833 0.065864 0.376635 -0.17448
2005-05-04 05:11:29 51°16.142 2°50.09 19.5863 0.065864 0.376642 -0.17448
2005-05-04 05:11:34 51°16.152 2°50.065 19.5811 0.065864 0.376642 -0.17448
2005-05-04 05:11:39 51°16.161 2°50.043 19.588 0.065864 0.376648 -0.14077
2005-05-04 05:11:44 51°16.172 2°50.015 19.5885 0.06576 0.376034 -0.17448
2005-05-04 05:11:49 51°16.181 2°49.991 19.5925 0.06576 0.376034 -0.208189
2005-05-04 05:11:53 51°16.189 2°49.971 19.593 0.065864 0.376655 -0.14077
2005-05-04 05:11:59 51°16.199 2°49.943 19.594 0.065864 0.376655 -0.17448
2005-05-04 05:12:04 51°16.209 2°49.918 19.5939 0.065864 0.376655 -0.17448
2005-05-04 05:12:09 51°16.219 2°49.893 19.5968 0.065864 0.376661 -0.14077
2005-05-04 05:12:14 51°16.229 2°49.866 19.6009 0.065864 0.376661 -0.17448
2005-05-04 05:12:19 51°16.238 2°49.844 19.6038 0.065864 0.376655 -0.17448
2005-05-04 05:12:23 51°16.247 2°49.821 19.5937 0.065864 0.376667 -0.17448
2005-05-04 05:12:29 51°16.257 2°49.796 19.5905 0.065864 0.376667 -0.17448
2005-05-04 05:12:34 51°16.266 2°49.772 19.5824 0.065864 0.376667 -0.17448
2005-05-04 05:12:39 51°16.273 2°49.754 19.5945 0.06576 0.376072 -0.208189
2005-05-04 05:12:44 51°16.282 2°49.737 19.6032 0.06576 0.376072 -0.14077
2005-05-04 05:12:49 51°16.291 2°49.721 19.6116 0.06576 0.37606 -0.17448
2005-05-04 05:12:54 51°16.299 2°49.71 19.618 0.06576 0.376066 -0.17448
2005-05-04 05:12:59 51°16.308 2°49.701 19.6209 0.065864 0.37668 -0.17448
2005-05-04 05:13:04 51°16.317 2°49.693 19.6261 0.065864 0.37668 -0.17448
2005-05-04 05:13:09 51°16.326 2°49.686 19.6316 0.06576 0.376092 -0.17448
2005-05-04 05:13:14 51°16.334 2°49.68 19.6299 0.06576 0.376098 -0.17448
2005-05-04 05:13:19 51°16.342 2°49.675 19.6313 0.065864 0.376719 -0.17448
2005-05-04 05:13:24 51°16.351 2°49.671 19.6439 0.065864 0.376725 -0.17448
2005-05-04 05:13:29 51°16.359 2°49.668 19.6401 0.06576 0.376118 -0.17448
2005-05-04 05:13:34 51°16.367 2°49.664 19.6536 0.06576 0.376118 -0.17448
2005-05-04 05:13:39 51°16.376 2°49.659 19.6399 0.06576 0.376124 -0.17448
2005-05-04 05:13:44 51°16.385 2°49.654 19.6356 0.06576 0.376137 -0.17448
2005-05-04 05:13:49 51°16.395 2°49.649 19.6239 0.065864 0.376738 -0.14077
2005-05-04 05:13:54 51°16.404 2°49.646 19.6326 0.065864 0.376732 -0.14077
2005-05-04 05:13:59 51°16.411 2°49.644 19.6399 0.06576 0.376105 -0.17448
2005-05-04 05:14:04 51°16.42 2°49.643 19.6413 0.06576 0.376105 -0.17448
2005-05-04 05:14:09 51°16.428 2°49.645 19.6508 0.06576 0.376092 -0.17448
2005-05-04 05:14:14 51°16.436 2°49.647 19.6552 0.06576 0.376098 -0.17448
2005-05-04 05:14:19 51°16.443 2°49.649 19.6553 0.06576 0.376118 -0.17448
2005-05-04 05:14:24 51°16.451 2°49.652 19.6585 0.06576 0.376143 -0.208189
2005-05-04 05:14:29 51°16.459 2°49.653 19.6628 0.065864 0.376771 -0.17448
2005-05-04 05:14:34 51°16.466 2°49.655 19.6689 0.065864 0.376771 -0.17448
2005-05-04 05:14:39 51°16.473 2°49.656 19.6751 0.06576 0.376176 -0.17448
2005-05-04 05:14:45 51°16.482 2°49.657 19.6711 0.06576 0.376169 -0.14077
2005-05-04 05:14:49 51°16.488 2°49.656 19.6713 0.065864 0.376796 -0.17448
2005-05-04 05:14:55 51°16.495 2°49.655 19.6666 0.06576 0.376188 -0.17448
2005-05-04 05:14:59 51°16.5 2°49.653 19.6712 0.06576 0.376188 -0.17448
2005-05-04 05:15:04 51°16.506 2°49.652 19.6722 0.06576 0.376188 -0.17448
2005-05-04 05:15:09 51°16.512 2°49.65 19.6663 0.06576 0.376176 -0.17448
2005-05-04 05:15:14 51°16.517 2°49.647 19.6633 0.06576 0.376176 -0.14077
2005-05-04 05:15:19 51°16.523 2°49.646 19.6648 0.06576 0.376163 -0.14077
2005-05-04 05:15:24 51°16.527 2°49.645 19.6733 0.06576 0.37615 -0.17448
2005-05-04 05:15:29 51°16.532 2°49.644 19.676 0.06576 0.376156 -0.17448
2005-05-04 05:15:34 51°16.536 2°49.645 19.6778 0.06576 0.376156 -0.17448
2005-05-04 05:15:39 51°16.54 2°49.645 19.6859 0.06576 0.37615 -0.17448
2005-05-04 05:15:44 51°16.543 2°49.646 19.6955 0.06576 0.376169 -0.17448
2005-05-04 05:15:49 51°16.547 2°49.647 19.7585 0.06576 0.376182 -0.14077
2005-05-04 05:15:54 51°16.55 2°49.65 19.7536 0.06576 0.376208 -0.17448
2005-05-04 05:15:59 51°16.553 2°49.652 19.7485 0.06576 0.376221 -0.17448
2005-05-04 05:16:04 51°16.556 2°49.655 19.7477 0.06576 0.376221 -0.17448
2005-05-04 05:16:09 51°16.558 2°49.658 19.7425 0.06576 0.376227 -0.17448
2005-05-04 05:16:14 51°16.56 2°49.66 19.7414 0.06576 0.376227 -0.14077
2005-05-04 05:16:19 51°16.563 2°49.664 19.7409 0.06576 0.376227 -0.14077
2005-05-04 05:16:24 51°16.565 2°49.666 19.7392 0.06576 0.376214 -0.14077
2005-05-04 05:16:29 51°16.567 2°49.669 19.7396 0.06576 0.376214 -0.17448
2005-05-04 05:16:34 51°16.569 2°49.672 19.7336 0.06576 0.376214 -0.17448
2005-05-04 05:16:39 51°16.571 2°49.674 19.7394 0.06576 0.376201 -0.14077
2005-05-04 05:16:43 51°16.573 2°49.676 19.7332 0.06576 0.376208 -0.14077
2005-05-04 05:16:49 51°16.575 2°49.678 19.7355 0.06576 0.376214 -0.17448
2005-05-04 05:16:54 51°16.578 2°49.68 19.7346 0.06576 0.376221 -0.17448
2005-05-04 05:16:59 51°16.58 2°49.681 19.738 0.06576 0.376227 -0.17448
2005-05-04 05:17:04 51°16.582 2°49.683 19.7366 0.06576 0.376227 -0.17448
2005-05-04 05:17:09 51°16.584 2°49.684 19.7389 0.06576 0.376234 -0.208189
2005-05-04 05:17:14 51°16.586 2°49.686 19.7384 0.06576 0.37624 -0.14077
2005-05-04 05:17:19 51°16.587 2°49.687 19.743 0.06576 0.37624 -0.14077
2005-05-04 05:17:24 51°16.589 2°49.688 19.7383 0.06576 0.376227 -0.17448
2005-05-04 05:17:29 51°16.592 2°49.69 19.7397 0.06576 0.376227 -0.17448
2005-05-04 05:17:35 51°16.594 2°49.693 19.7377 0.06576 0.376227 -0.17448
2005-05-04 05:17:39 51°16.595 2°49.695 19.7433 0.06576 0.376221 -0.17448
2005-05-04 05:17:44 51°16.597 2°49.699 19.7452 0.06576 0.376221 -0.17448
2005-05-04 05:17:49 51°16.599 2°49.702 19.7467 0.06576 0.376221 -0.14077
2005-05-04 05:17:54 51°16.6 2°49.705 19.7443 0.06576 0.376221 -0.17448
2005-05-04 05:17:59 51°16.602 2°49.708 19.7452 0.06576 0.376234 -0.208189
2005-05-04 05:18:04 51°16.604 2°49.712 19.7496 0.06576 0.376234 -0.208189
2005-05-04 05:18:09 51°16.606 2°49.714 19.7502 0.06576 0.376246 -0.14077
2005-05-04 05:18:14 51°16.608 2°49.717 19.7514 0.06576 0.376253 -0.208189
2005-05-04 05:18:19 51°16.61 2°49.719 19.7479 0.06576 0.376266 -0.17448
2005-05-04 05:18:25 51°16.613 2°49.722 19.7442 0.06576 0.376266 -0.17448
2005-05-04 05:18:29 51°16.615 2°49.725 19.7462 0.06576 0.376266 -0.17448
2005-05-04 05:18:34 51°16.617 2°49.727 19.7485 0.06576 0.376266 -0.17448
2005-05-04 05:18:39 51°16.62 2°49.731 19.7471 0.06576 0.376266 -0.14077
2005-05-04 05:18:45 51°16.622 2°49.734 19.742 0.06576 0.376259 -0.14077
2005-05-04 05:18:49 51°16.624 2°49.737 19.7478 0.06576 0.376259 -0.17448
2005-05-04 05:18:55 51°16.626 2°49.741 19.7523 0.06576 0.376253 -0.14077
2005-05-04 05:18:59 51°16.627 2°49.744 19.7516 0.06576 0.376259 -0.14077
2005-05-04 05:19:04 51°16.629 2°49.749 19.7552 0.06576 0.376259 -0.14077
2005-05-04 05:19:09 51°16.632 2°49.756 19.7563 0.06576 0.376279 -0.17448
2005-05-04 05:19:14 51°16.633 2°49.76 19.7583 0.06576 0.376292 -0.14077
2005-05-04 05:19:19 51°16.634 2°49.763 19.7599 0.06576 0.376304 -0.14077
2005-05-04 05:19:23 51°16.636 2°49.765 19.7612 0.06576 0.376317 -0.14077
2005-05-04 05:19:29 51°16.638 2°49.768 19.7618 0.06576 0.376311 -0.17448
2005-05-04 05:19:34 51°16.64 2°49.77 19.7557 0.06576 0.376311 -0.17448
2005-05-04 05:19:39 51°16.642 2°49.772 19.7614 0.06576 0.376324 -0.208189
2005-05-04 05:19:44 51°16.645 2°49.773 19.7603 0.06576 0.376324 -0.17448
2005-05-04 05:19:49 51°16.647 2°49.774 19.7522 0.06576 0.376317 -0.14077
2005-05-04 05:19:54 51°16.649 2°49.775 19.7544 0.06576 0.376317 -0.14077
2005-05-04 05:19:59 51°16.651 2°49.776 19.7594 0.06576 0.376317 -0.14077
2005-05-04 05:20:04 51°16.654 2°49.778 19.7545 0.06576 0.376317 -0.14077
2005-05-04 05:20:09 51°16.657 2°49.781 19.7574 0.06576 0.376304 -0.17448
2005-05-04 05:20:14 51°16.659 2°49.783 19.7578 0.06576 0.376304 -0.17448
2005-05-04 05:20:19 51°16.661 2°49.786 19.7556 0.06576 0.376304 -0.17448
2005-05-04 05:20:24 51°16.663 2°49.79 19.7554 0.06576 0.376311 -0.17448
2005-05-04 05:20:29 51°16.665 2°49.794 19.7624 0.06576 0.376324 -0.17448
2005-05-04 05:20:34 51°16.666 2°49.797 19.7626 0.06576 0.376324 -0.17448
2005-05-04 05:20:39 51°16.667 2°49.801 19.7586 0.06576 0.376343 -0.14077
2005-05-04 05:20:44 51°16.668 2°49.805 19.7605 0.06576 0.376356 -0.17448
2005-05-04 05:20:49 51°16.668 2°49.809 19.7587 0.06576 0.376369 -0.17448
2005-05-04 05:20:54 51°16.668 2°49.811 19.7608 0.06576 0.376375 -0.14077
2005-05-04 05:20:59 51°16.668 2°49.814 19.7639 0.06576 0.376362 -0.17448
2005-05-04 05:21:04 51°16.668 2°49.817 19.7659 0.06576 0.376362 -0.17448
2005-05-04 05:21:09 51°16.668 2°49.82 19.7719 0.06576 0.376362 -0.14077
2005-05-04 05:21:14 51°16.667 2°49.823 19.7654 0.06576 0.376356 -0.17448
2005-05-04 05:21:19 51°16.667 2°49.825 19.7685 0.06576 0.376356 -0.17448
2005-05-04 05:21:24 51°16.666 2°49.827 19.768 0.06576 0.376356 -0.14077
2005-05-04 05:21:29 51°16.665 2°49.828 19.7625 0.06576 0.376362 -0.14077
2005-05-04 05:21:34 51°16.664 2°49.829 19.7735 0.06576 0.376362 -0.14077
2005-05-04 05:21:39 51°16.663 2°49.83 19.777 0.06576 0.376369 -0.14077
2005-05-04 05:21:43 51°16.662 2°49.83 19.7796 0.06576 0.376375 -0.14077
2005-05-04 05:21:49 51°16.661 2°49.83 19.7767 0.06576 0.376388 -0.17448
2005-05-04 05:21:54 51°16.66 2°49.83 19.7759 0.06576 0.376395 -0.17448
2005-05-04 05:21:59 51°16.659 2°49.83 19.7726 0.06576 0.376401 -0.14077
2005-05-04 05:22:04 51°16.657 2°49.829 19.7724 0.06576 0.376401 -0.14077
2005-05-04 05:22:09 51°16.656 2°49.829 19.7724 0.06576 0.376401 -0.17448
2005-05-04 05:22:14 51°16.655 2°49.828 19.7724 0.06576 0.376395 -0.14077
2005-05-04 05:22:19 51°16.654 2°49.827 19.7745 0.06576 0.376401 -0.14077
2005-05-04 05:22:25 51°16.653 2°49.825 19.7786 0.06576 0.376395 -0.14077
2005-05-04 05:22:29 51°16.652 2°49.824 19.7784 0.06576 0.376382 -0.14077
2005-05-04 05:22:33 51°16.651 2°49.823 19.7797 0.06576 0.376382 -0.14077
2005-05-04 05:22:39 51°16.65 2°49.821 19.7759 0.06576 0.376382 -0.17448
2005-05-04 05:22:43 51°16.65 2°49.819 19.7773 0.06576 0.376388 -0.14077
2005-05-04 05:22:49 51°16.649 2°49.815 19.7809 0.06576 0.376382 -0.14077
2005-05-04 05:22:54 51°16.649 2°49.813 19.7828 0.06576 0.376388 -0.208189
2005-05-04 05:22:59 51°16.648 2°49.81 19.782 0.06576 0.376401 -0.17448
2005-05-04 05:23:05 51°16.648 2°49.807 19.7794 0.06576 0.376401 -0.17448
2005-05-04 05:23:09 51°16.647 2°49.804 19.7757 0.06576 0.376408 -0.14077
2005-05-04 05:23:15 51°16.647 2°49.801 19.7849 0.06576 0.37642 -0.208189
2005-05-04 05:23:19 51°16.647 2°49.799 19.7832 0.06576 0.376427 -0.14077
2005-05-04 05:23:25 51°16.646 2°49.796 19.7863 0.06576 0.376433 -0.17448
2005-05-04 05:23:30 51°16.646 2°49.793 19.7885 0.06576 0.376427 -0.14077
2005-05-04 05:23:35 51°16.645 2°49.791 19.7867 0.06576 0.376427 -0.14077
2005-05-04 05:23:39 51°16.644 2°49.79 19.7914 0.06576 0.376433 -0.14077
2005-05-04 05:23:44 51°16.643 2°49.79 19.7899 0.06576 0.376427 -0.14077
2005-05-04 05:23:49 51°16.642 2°49.789 19.7898 0.06576 0.37644 -0.14077
2005-05-04 05:23:54 51°16.641 2°49.789 19.7896 0.06576 0.376446 -0.14077
2005-05-04 05:23:59 51°16.64 2°49.789 19.7869 0.06576 0.37644 -0.14077
2005-05-04 05:24:04 51°16.639 2°49.788 19.7905 0.06576 0.37644 -0.14077
2005-05-04 05:24:09 51°16.637 2°49.788 19.7912 0.06576 0.376453 -0.17448
2005-05-04 05:24:14 51°16.636 2°49.788 19.7883 0.06576 0.376459 -0.17448
2005-05-04 05:24:19 51°16.635 2°49.788 19.7844 0.06576 0.376459 -0.17448
2005-05-04 05:24:24 51°16.634 2°49.788 19.7944 0.06576 0.376472 -0.14077
2005-05-04 05:24:29 51°16.632 2°49.787 19.7892 0.06576 0.376472 -0.17448
2005-05-04 05:24:34 51°16.631 2°49.787 19.7972 0.06576 0.376472 -0.17448
2005-05-04 05:24:39 51°16.63 2°49.787 19.7928 0.06576 0.376466 -0.17448
2005-05-04 05:24:45 51°16.629 2°49.787 19.7962 0.06576 0.376466 -0.14077
2005-05-04 05:24:49 51°16.627 2°49.787 19.7928 0.06576 0.376466 -0.17448
2005-05-04 05:24:53 51°16.627 2°49.786 19.796 0.06576 0.376472 -0.14077
2005-05-04 05:24:59 51°16.626 2°49.786 19.801 0.06576 0.376459 -0.14077
2005-05-04 05:25:04 51°16.625 2°49.786 19.7994 0.06576 0.376459 -0.14077
2005-05-04 05:25:09 51°16.624 2°49.786 19.7927 0.06576 0.376466 -0.17448
2005-05-04 05:25:14 51°16.623 2°49.786 19.8012 0.06576 0.376466 -0.14077
2005-05-04 05:25:19 51°16.622 2°49.786 19.8006 0.06576 0.376472 -0.14077
2005-05-04 05:25:24 51°16.62 2°49.786 19.8043 0.06576 0.376472 -0.208189
2005-05-04 05:25:29 51°16.619 2°49.787 19.8006 0.06576 0.376479 -0.17448
2005-05-04 05:25:34 51°16.618 2°49.787 19.7994 0.06576 0.376479 -0.17448
2005-05-04 05:25:39 51°16.617 2°49.787 19.8016 0.06576 0.376485 -0.17448
2005-05-04 05:25:44 51°16.616 2°49.787 19.8021 0.06576 0.376485 -0.14077
2005-05-04 05:25:49 51°16.614 2°49.787 19.8032 0.06576 0.376491 -0.14077
2005-05-04 05:25:54 51°16.613 2°49.787 19.8049 0.06576 0.376491 -0.14077
2005-05-04 05:25:59 51°16.612 2°49.788 19.7986 0.06576 0.376498 -0.14077
2005-05-04 05:26:04 51°16.611 2°49.788 19.799 0.06576 0.376498 -0.14077
2005-05-04 05:26:09 51°16.61 2°49.788 19.8059 0.06576 0.376491 -0.17448
2005-05-04 05:26:14 51°16.608 2°49.788 19.8099 0.06576 0.376504 -0.14077
2005-05-04 05:26:19 51°16.607 2°49.788 19.8083 0.06576 0.376504 -0.14077
2005-05-04 05:26:24 51°16.606 2°49.789 19.8084 0.06576 0.376511 -0.14077
2005-05-04 05:26:29 51°16.605 2°49.789 19.8104 0.06576 0.376511 -0.14077
2005-05-04 05:26:34 51°16.604 2°49.789 19.8063 0.06576 0.376511 -0.14077
2005-05-04 05:26:39 51°16.603 2°49.79 19.8116 0.06576 0.376517 -0.17448
2005-05-04 05:26:45 51°16.602 2°49.79 19.8129 0.06576 0.376517 -0.17448
2005-05-04 05:26:49 51°16.601 2°49.791 19.8157 0.06576 0.376524 -0.14077
2005-05-04 05:26:54 51°16.599 2°49.791 19.811 0.06576 0.376524 -0.17448
2005-05-04 05:26:59 51°16.598 2°49.791 19.8114 0.06576 0.376537 -0.14077
2005-05-04 05:27:04 51°16.597 2°49.791 19.8103 0.06576 0.376537 -0.14077
2005-05-04 05:27:09 51°16.596 2°49.792 19.8159 0.06576 0.376543 -0.14077
2005-05-04 05:27:14 51°16.595 2°49.792 19.8175 0.06576 0.376537 -0.14077
2005-05-04 05:27:19 51°16.594 2°49.792 19.8159 0.06576 0.376543 -0.17448
2005-05-04 05:27:24 51°16.593 2°49.793 19.8154 0.06576 0.37655 -0.17448
2005-05-04 05:27:29 51°16.592 2°49.793 19.8053 0.06576 0.37655 -0.17448
2005-05-04 05:27:34 51°16.591 2°49.794 19.8095 0.06576 0.37655 -0.17448
2005-05-04 05:27:39 51°16.59 2°49.794 19.8206 0.06576 0.376556 -0.14077
2005-05-04 05:27:44 51°16.589 2°49.794 19.817 0.06576 0.37655 -0.17448
2005-05-04 05:27:49 51°16.588 2°49.794 19.8117 0.06576 0.376562 -0.17448
2005-05-04 05:27:54 51°16.587 2°49.795 19.8192 0.06576 0.376569 -0.17448
2005-05-04 05:27:59 51°16.586 2°49.795 19.8189 0.06576 0.376569 -0.17448
2005-05-04 05:28:04 51°16.585 2°49.795 19.8214 0.06576 0.376569 -0.17448
2005-05-04 05:28:09 51°16.584 2°49.795 19.8208 0.06576 0.376569 -0.17448
2005-05-04 05:28:14 51°16.584 2°49.796 19.8202 0.06576 0.376575 -0.17448
2005-05-04 05:28:19 51°16.583 2°49.796 19.8225 0.06576 0.376575 -0.17448
2005-05-04 05:28:24 51°16.582 2°49.797 19.8273 0.06576 0.376582 -0.17448
2005-05-04 05:28:29 51°16.581 2°49.797 19.8235 0.06576 0.376588 -0.17448
2005-05-04 05:28:34 51°16.58 2°49.797 19.8247 0.06576 0.376588 -0.17448
2005-05-04 05:28:39 51°16.579 2°49.798 19.8235 0.06576 0.376588 -0.14077
2005-05-04 05:28:44 51°16.578 2°49.799 19.823 0.06576 0.376595 -0.17448
2005-05-04 05:28:49 51°16.577 2°49.799 19.828 0.06576 0.376601 -0.14077
2005-05-04 05:28:54 51°16.576 2°49.799 19.8281 0.06576 0.376595 -0.14077
2005-05-04 05:28:59 51°16.576 2°49.8 19.8259 0.06576 0.376601 -0.17448
2005-05-04 05:29:04 51°16.575 2°49.8 19.8262 0.06576 0.376601 -0.17448
2005-05-04 05:29:09 51°16.574 2°49.8 19.8329 0.06576 0.376614 -0.17448
2005-05-04 05:29:14 51°16.573 2°49.801 19.8272 0.06576 0.376608 -0.17448
2005-05-04 05:29:19 51°16.572 2°49.801 19.8303 0.06576 0.376608 -0.14077
2005-05-04 05:29:24 51°16.571 2°49.801 19.8321 0.06576 0.376621 -0.17448
2005-05-04 05:29:29 51°16.57 2°49.801 19.8362 0.06576 0.376621 -0.17448
2005-05-04 05:29:34 51°16.57 2°49.801 19.8323 0.06576 0.376621 -0.17448
2005-05-04 05:29:39 51°16.569 2°49.801 19.8363 0.06576 0.376633 -0.14077
2005-05-04 05:29:44 51°16.568 2°49.801 19.8373 0.06576 0.37664 -0.17448
2005-05-04 05:29:49 51°16.567 2°49.802 19.8315 0.06576 0.37664 -0.14077
2005-05-04 05:29:54 51°16.566 2°49.802 19.8323 0.06576 0.37664 -0.14077
2005-05-04 05:29:59 51°16.566 2°49.802 19.8242 0.06576 0.376646 -0.17448
2005-05-04 05:30:05 51°16.564 2°49.802 19.8338 0.06576 0.376646 -0.17448
2005-05-04 05:30:09 51°16.564 2°49.802 19.8357 0.06576 0.376646 -0.17448
2005-05-04 05:30:14 51°16.563 2°49.802 19.8407 0.06576 0.376653 -0.14077
2005-05-04 05:30:19 51°16.562 2°49.803 19.841 0.06576 0.376666 -0.14077
2005-05-04 05:30:24 51°16.561 2°49.803 19.8431 0.06576 0.376666 -0.17448
2005-05-04 05:30:29 51°16.56 2°49.803 19.8326 0.06576 0.376672 -0.208189
2005-05-04 05:30:34 51°16.56 2°49.803 19.8363 0.06576 0.376672 -0.208189
2005-05-04 05:30:39 51°16.56 2°49.803 19.829 0.06576 0.376666 -0.14077
2005-05-04 05:30:44 51°16.559 2°49.803 19.8278 0.06576 0.376672 -0.14077
2005-05-04 05:30:49 51°16.558 2°49.803 19.8376 0.06576 0.376685 -0.17448
2005-05-04 05:30:54 51°16.557 2°49.803 19.836 0.06576 0.376679 -0.14077
2005-05-04 05:30:59 51°16.556 2°49.803 19.8452 0.06576 0.376685 -0.17448
2005-05-04 05:31:04 51°16.556 2°49.803 19.8434 0.06576 0.376685 -0.17448
2005-05-04 05:31:09 51°16.555 2°49.803 19.8434 0.065656 0.376076 -0.14077
2005-05-04 05:31:14 51°16.555 2°49.803 19.84 0.065656 0.376083 -0.14077
2005-05-04 05:31:19 51°16.554 2°49.803 19.8409 0.06576 0.376698 -0.14077
2005-05-04 05:31:24 51°16.553 2°49.803 19.8467 0.06576 0.376705 -0.14077
2005-05-04 05:31:29 51°16.552 2°49.803 19.8376 0.06576 0.376711 -0.17448
2005-05-04 05:31:34 51°16.551 2°49.803 19.844 0.06576 0.376711 -0.17448
2005-05-04 05:31:39 51°16.551 2°49.803 19.8409 0.06576 0.376711 -0.17448
2005-05-04 05:31:44 51°16.55 2°49.803 19.8372 0.065656 0.376102 -0.14077
2005-05-04 05:31:49 51°16.549 2°49.802 19.843 0.065656 0.376109 -0.17448
2005-05-04 05:31:54 51°16.549 2°49.802 19.8438 0.065656 0.376115 -0.17448
2005-05-04 05:31:59 51°16.548 2°49.802 19.8415 0.065656 0.376115 -0.17448
2005-05-04 05:32:03 51°16.548 2°49.803 19.8495 0.065656 0.376115 -0.17448
2005-05-04 05:32:09 51°16.547 2°49.803 19.8545 0.065656 0.376115 -0.14077
2005-05-04 05:32:14 51°16.546 2°49.803 19.8535 0.06576 0.37673 -0.14077
2005-05-04 05:32:19 51°16.545 2°49.803 19.8463 0.06576 0.37673 -0.17448
2005-05-04 05:32:23 51°16.544 2°49.803 19.8522 0.065656 0.376128 -0.14077
2005-05-04 05:32:29 51°16.543 2°49.802 19.8541 0.06576 0.37675 -0.17448
2005-05-04 05:32:34 51°16.543 2°49.802 19.8458 0.06576 0.37675 -0.17448
2005-05-04 05:32:39 51°16.542 2°49.802 19.8458 0.06576 0.376756 -0.17448
2005-05-04 05:32:44 51°16.541 2°49.802 19.8543 0.06576 0.376756 -0.14077
2005-05-04 05:32:49 51°16.541 2°49.801 19.856 0.06576 0.376756 -0.17448
2005-05-04 05:32:54 51°16.54 2°49.801 19.8574 0.065656 0.376154 -0.14077
2005-05-04 05:32:59 51°16.539 2°49.801 19.8475 0.06576 0.376769 -0.17448
2005-05-04 05:33:04 51°16.539 2°49.801 19.8524 0.06576 0.376769 -0.17448
2005-05-04 05:33:09 51°16.538 2°49.801 19.8488 0.065656 0.37616 -0.107061
2005-05-04 05:33:14 51°16.537 2°49.801 19.8596 0.065656 0.376167 -0.14077
2005-05-04 05:33:19 51°16.536 2°49.801 19.8498 0.065656 0.376173 -0.17448
2005-05-04 05:33:24 51°16.535 2°49.8 19.8553 0.065656 0.376173 -0.17448
2005-05-04 05:33:29 51°16.535 2°49.8 19.85 0.06576 0.376789 -0.17448
2005-05-04 05:33:34 51°16.534 2°49.799 19.8597 0.06576 0.376789 -0.17448
2005-05-04 05:33:39 51°16.534 2°49.799 19.8618 0.06576 0.376795 -0.107061
2005-05-04 05:33:44 51°16.535 2°49.799 19.8619 0.06576 0.376808 -0.14077
2005-05-04 05:33:49 51°16.536 2°49.799 19.8606 0.06576 0.376802 -0.17448
2005-05-04 05:33:54 51°16.538 2°49.799 19.8599 0.06576 0.376808 -0.17448
2005-05-04 05:33:59 51°16.54 2°49.799 19.8617 0.065656 0.376193 -0.17448
2005-05-04 05:34:04 51°16.543 2°49.799 19.8555 0.065656 0.376193 -0.17448
2005-05-04 05:34:09 51°16.546 2°49.799 19.8621 0.065656 0.376199 -0.17448
2005-05-04 05:34:14 51°16.55 2°49.798 19.8569 0.065656 0.376205 -0.14077
2005-05-04 05:34:19 51°16.553 2°49.798 19.849 0.065656 0.376218 -0.17448
2005-05-04 05:34:25 51°16.558 2°49.797 19.8555 0.065656 0.376212 -0.14077
2005-05-04 05:34:29 51°16.562 2°49.797 19.8633 0.065656 0.376212 -0.17448
2005-05-04 05:34:35 51°16.567 2°49.797 19.8523 0.065656 0.376212 -0.17448
2005-05-04 05:34:39 51°16.57 2°49.797 19.853 0.065656 0.376218 -0.14077
2005-05-04 05:34:44 51°16.575 2°49.796 19.8588 0.065656 0.376225 -0.17448
2005-05-04 05:34:49 51°16.579 2°49.795 19.8605 0.065656 0.376231 -0.14077
2005-05-04 05:34:54 51°16.583 2°49.794 19.858 0.065656 0.376244 -0.14077
2005-05-04 05:34:59 51°16.586 2°49.794 19.8553 0.065656 0.376257 -0.14077
2005-05-04 05:35:04 51°16.59 2°49.793 19.8618 0.065656 0.376257 -0.14077
2005-05-04 05:35:09 51°16.593 2°49.792 19.8662 0.065656 0.376257 -0.17448
2005-05-04 05:35:14 51°16.596 2°49.791 19.8613 0.065656 0.37627 -0.14077
2005-05-04 05:35:19 51°16.599 2°49.79 19.8612 0.065656 0.37627 -0.17448
2005-05-04 05:35:24 51°16.602 2°49.788 19.8594 0.065656 0.376264 -0.14077
2005-05-04 05:35:29 51°16.604 2°49.787 19.8553 0.065656 0.376276 -0.17448
2005-05-04 05:35:34 51°16.606 2°49.786 19.8642 0.065656 0.376276 -0.17448
2005-05-04 05:35:39 51°16.608 2°49.785 19.8648 0.065656 0.37627 -0.17448
2005-05-04 05:35:44 51°16.609 2°49.783 19.8693 0.065656 0.376276 -0.14077
2005-05-04 05:35:49 51°16.611 2°49.783 19.8636 0.065656 0.376264 -0.17448
2005-05-04 05:35:54 51°16.612 2°49.782 19.8691 0.065656 0.376276 -0.14077
2005-05-04 05:35:59 51°16.614 2°49.781 19.8706 0.065656 0.376276 -0.17448
2005-05-04 05:36:04 51°16.615 2°49.78 19.8695 0.065656 0.376276 -0.17448
2005-05-04 05:36:09 51°16.617 2°49.779 19.8711 0.065656 0.376296 -0.14077
2005-05-04 05:36:14 51°16.619 2°49.779 19.8647 0.065656 0.376302 -0.14077
2005-05-04 05:36:19 51°16.62 2°49.778 19.8545 0.065656 0.376309 -0.17448
2005-05-04 05:36:25 51°16.622 2°49.778 19.866 0.065656 0.376322 -0.14077
2005-05-04 05:36:29 51°16.623 2°49.777 19.8683 0.065656 0.376315 -0.14077
2005-05-04 05:36:34 51°16.625 2°49.777 19.8565 0.065656 0.376315 -0.14077
2005-05-04 05:36:39 51°16.626 2°49.775 19.8633 0.065656 0.376322 -0.17448
2005-05-04 05:36:44 51°16.627 2°49.775 19.8643 0.065656 0.376309 -0.14077
2005-05-04 05:36:49 51°16.629 2°49.774 19.8728 0.065656 0.376322 -0.17448
2005-05-04 05:36:54 51°16.63 2°49.774 19.8716 0.065656 0.376315 -0.14077
2005-05-04 05:36:59 51°16.631 2°49.774 19.868 0.065656 0.376322 -0.14077
2005-05-04 05:37:05 51°16.632 2°49.773 19.865 0.065656 0.376322 -0.14077
2005-05-04 05:37:09 51°16.633 2°49.772 19.8753 0.065656 0.376328 -0.14077
2005-05-04 05:37:15 51°16.635 2°49.772 19.8604 0.065656 0.376335 -0.107061
2005-05-04 05:37:19 51°16.635 2°49.771 19.8692 0.065656 0.376335 -0.17448
2005-05-04 05:37:24 51°16.636 2°49.771 19.8757 0.065656 0.376348 -0.14077
2005-05-04 05:37:29 51°16.637 2°49.77 19.8671 0.065656 0.376348 -0.17448
2005-05-04 05:37:34 51°16.638 2°49.77 19.8747 0.065656 0.376348 -0.17448
2005-05-04 05:37:39 51°16.64 2°49.769 19.8742 0.065656 0.376348 -0.14077
2005-05-04 05:37:45 51°16.641 2°49.769 19.8813 0.065656 0.376348 -0.14077
2005-05-04 05:37:49 51°16.643 2°49.769 19.8629 0.065656 0.376348 -0.17448
2005-05-04 05:37:55 51°16.645 2°49.769 19.8672 0.065656 0.376348 -0.14077
2005-05-04 05:37:59 51°16.646 2°49.77 19.8626 0.065656 0.376341 -0.17448
2005-05-04 05:38:04 51°16.648 2°49.771 19.868 0.065656 0.376341 -0.17448
2005-05-04 05:38:09 51°16.649 2°49.771 19.8689 0.065656 0.376348 -0.14077
2005-05-04 05:38:14 51°16.65 2°49.772 19.8695 0.065656 0.376354 -0.17448
2005-05-04 05:38:19 51°16.65 2°49.773 19.8794 0.065656 0.37636 -0.17448
2005-05-04 05:38:24 51°16.65 2°49.772 19.8823 0.065656 0.376367 -0.14077
2005-05-04 05:38:29 51°16.65 2°49.773 19.8796 0.065656 0.376367 -0.17448
2005-05-04 05:38:34 51°16.65 2°49.773 19.8733 0.065656 0.376367 -0.17448
2005-05-04 05:38:39 51°16.649 2°49.773 19.8694 0.065656 0.37638 -0.17448
2005-05-04 05:38:44 51°16.648 2°49.772 19.8711 0.065656 0.376393 -0.17448
2005-05-04 05:38:49 51°16.647 2°49.771 19.8815 0.065656 0.376386 -0.14077
2005-05-04 05:38:54 51°16.646 2°49.77 19.8808 0.065656 0.376399 -0.17448
2005-05-04 05:38:59 51°16.644 2°49.769 19.8825 0.065656 0.376399 -0.17448
2005-05-04 05:39:05 51°16.642 2°49.767 19.8801 0.065656 0.376399 -0.17448
2005-05-04 05:39:09 51°16.641 2°49.766 19.8833 0.065656 0.376406 -0.14077
2005-05-04 05:39:14 51°16.639 2°49.765 19.8798 0.065656 0.376406 -0.17448
2005-05-04 05:39:19 51°16.638 2°49.764 19.8845 0.065656 0.376399 -0.107061
2005-05-04 05:39:24 51°16.637 2°49.763 19.8831 0.065656 0.376406 -0.17448
2005-05-04 05:39:29 51°16.635 2°49.763 19.8897 0.065656 0.376399 -0.14077
2005-05-04 05:39:35 51°16.635 2°49.764 19.8823 0.065656 0.376399 -0.14077
2005-05-04 05:39:39 51°16.635 2°49.764 19.8813 0.065656 0.376412 -0.14077
2005-05-04 05:39:44 51°16.635 2°49.765 19.8885 0.065656 0.376406 -0.17448
2005-05-04 05:39:49 51°16.636 2°49.768 19.8878 0.065656 0.376412 -0.14077
2005-05-04 05:39:54 51°16.636 2°49.77 19.8813 0.065656 0.376412 -0.17448
2005-05-04 05:39:59 51°16.635 2°49.772 19.8864 0.065656 0.376419 -0.17448
2005-05-04 05:40:04 51°16.635 2°49.774 19.8916 0.065656 0.376419 -0.17448
2005-05-04 05:40:09 51°16.635 2°49.776 19.8875 0.065656 0.376425 -0.17448
2005-05-04 05:40:14 51°16.636 2°49.778 19.8927 0.065656 0.376432 -0.14077
2005-05-04 05:40:19 51°16.636 2°49.781 19.8926 0.065656 0.376432 -0.14077
2005-05-04 05:40:24 51°16.637 2°49.783 19.895 0.065656 0.376445 -0.17448
2005-05-04 05:40:29 51°16.638 2°49.785 19.8968 0.065656 0.376445 -0.14077
2005-05-04 05:40:34 51°16.64 2°49.787 19.8994 0.065656 0.376445 -0.14077
2005-05-04 05:40:39 51°16.642 2°49.787 19.8934 0.065656 0.376451 -0.17448
2005-05-04 05:40:44 51°16.643 2°49.788 19.8935 0.065656 0.376451 -0.14077
2005-05-04 05:40:49 51°16.644 2°49.788 19.8869 0.065656 0.376464 -0.14077
2005-05-04 05:40:54 51°16.646 2°49.789 19.8964 0.065656 0.376457 -0.17448
2005-05-04 05:40:59 51°16.647 2°49.789 19.8966 0.065656 0.376457 -0.14077
2005-05-04 05:41:04 51°16.648 2°49.79 19.8958 0.065656 0.376457 -0.14077
2005-05-04 05:41:09 51°16.649 2°49.79 19.8874 0.065656 0.376457 -0.14077
2005-05-04 05:41:14 51°16.65 2°49.791 19.8886 0.065656 0.376451 -0.107061
2005-05-04 05:41:19 51°16.651 2°49.791 19.8896 0.065656 0.376451 -0.17448
2005-05-04 05:41:24 51°16.652 2°49.792 19.8974 0.065656 0.376457 -0.14077
2005-05-04 05:41:29 51°16.653 2°49.792 19.8891 0.065656 0.376464 -0.17448
2005-05-04 05:41:34 51°16.654 2°49.793 19.8995 0.065656 0.376464 -0.17448
2005-05-04 05:41:39 51°16.654 2°49.793 19.8972 0.065656 0.376464 -0.14077
2005-05-04 05:41:44 51°16.655 2°49.793 19.9003 0.065656 0.376464 -0.17448
2005-05-04 05:41:49 51°16.655 2°49.793 19.9006 0.065656 0.37647 -0.17448
2005-05-04 05:41:54 51°16.656 2°49.793 19.8935 0.065656 0.37647 -0.17448
2005-05-04 05:41:59 51°16.657 2°49.794 19.8932 0.065656 0.376477 -0.17448
2005-05-04 05:42:04 51°16.658 2°49.795 19.8971 0.065656 0.376477 -0.17448
2005-05-04 05:42:09 51°16.659 2°49.795 19.9025 0.065656 0.376477 -0.107061
2005-05-04 05:42:14 51°16.66 2°49.796 19.9049 0.065656 0.37647 -0.17448
2005-05-04 05:42:19 51°16.661 2°49.797 19.9064 0.065656 0.376483 -0.14077
2005-05-04 05:42:24 51°16.662 2°49.798 19.9047 0.065656 0.376477 -0.17448
2005-05-04 05:42:29 51°16.663 2°49.8 19.9052 0.065656 0.376496 -0.14077
2005-05-04 05:42:34 51°16.664 2°49.8 19.9098 0.065656 0.376496 -0.14077
2005-05-04 05:42:39 51°16.665 2°49.802 19.903 0.065656 0.37649 -0.14077
2005-05-04 05:42:44 51°16.666 2°49.804 19.9094 0.065656 0.376503 -0.17448
2005-05-04 05:42:49 51°16.667 2°49.806 19.911 0.065656 0.376516 -0.14077
2005-05-04 05:42:54 51°16.669 2°49.809 19.9035 0.065656 0.376509 -0.17448
2005-05-04 05:42:59 51°16.671 2°49.812 19.8983 0.065656 0.376509 -0.14077
2005-05-04 05:43:04 51°16.673 2°49.816 19.8969 0.065656 0.376509 -0.14077
2005-05-04 05:43:09 51°16.675 2°49.821 19.906 0.065656 0.376516 -0.17448
2005-05-04 05:43:14 51°16.677 2°49.826 19.8936 0.065656 0.376509 -0.17448
2005-05-04 05:43:19 51°16.679 2°49.832 19.8908 0.065656 0.376516 -0.17448
2005-05-04 05:43:24 51°16.68 2°49.839 19.8968 0.065656 0.376516 -0.14077
2005-05-04 05:43:29 51°16.681 2°49.845 19.9041 0.065656 0.376522 -0.14077
2005-05-04 05:43:34 51°16.681 2°49.851 19.9001 0.065656 0.376522 -0.14077
2005-05-04 05:43:39 51°16.681 2°49.857 19.9074 0.065656 0.376535 -0.17448
2005-05-04 05:43:44 51°16.681 2°49.863 19.9051 0.065656 0.376542 -0.17448
2005-05-04 05:43:49 51°16.68 2°49.868 19.9121 0.065656 0.376554 -0.14077
2005-05-04 05:43:54 51°16.68 2°49.873 19.9133 0.065656 0.376561 -0.14077
2005-05-04 05:43:59 51°16.679 2°49.878 19.9167 0.065656 0.376561 -0.14077
2005-05-04 05:44:04 51°16.678 2°49.884 19.915 0.065656 0.376561 -0.14077
2005-05-04 05:44:09 51°16.677 2°49.889 19.9167 0.065656 0.376561 -0.17448
2005-05-04 05:44:14 51°16.676 2°49.893 19.9062 0.065656 0.376561 -0.14077
2005-05-04 05:44:19 51°16.676 2°49.897 19.9109 0.065656 0.376561 -0.14077
2005-05-04 05:44:24 51°16.675 2°49.902 19.9211 0.065656 0.376561 -0.17448
2005-05-04 05:44:29 51°16.674 2°49.907 19.9199 0.065656 0.376567 -0.14077
2005-05-04 05:44:34 51°16.672 2°49.911 19.9151 0.065656 0.376567 -0.14077
2005-05-04 05:44:39 51°16.671 2°49.915 19.9162 0.065656 0.376567 -0.107061
2005-05-04 05:44:44 51°16.67 2°49.92 19.9247 0.065656 0.376574 -0.17448
2005-05-04 05:44:49 51°16.669 2°49.923 19.9228 0.065656 0.376567 -0.17448
2005-05-04 05:44:54 51°16.668 2°49.927 19.9112 0.065656 0.376574 -0.14077
2005-05-04 05:44:59 51°16.666 2°49.931 19.9201 0.065656 0.37658 -0.17448
2005-05-04 05:45:04 51°16.665 2°49.934 19.9247 0.065656 0.37658 -0.17448
2005-05-04 05:45:09 51°16.663 2°49.938 19.9285 0.065656 0.37658 -0.14077
2005-05-04 05:45:14 51°16.662 2°49.941 19.9194 0.065656 0.37658 -0.208189
2005-05-04 05:45:19 51°16.661 2°49.945 19.9278 0.065656 0.376593 -0.14077
2005-05-04 05:45:25 51°16.658 2°49.948 19.9147 0.065656 0.376587 -0.107061
2005-05-04 05:45:29 51°16.657 2°49.951 19.9212 0.065656 0.376593 -0.14077
2005-05-04 05:45:34 51°16.655 2°49.954 19.92 0.065656 0.376593 -0.14077
2005-05-04 05:45:39 51°16.654 2°49.957 19.931 0.065656 0.376593 -0.14077
2005-05-04 05:45:45 51°16.652 2°49.96 19.9105 0.065656 0.376593 -0.14077
2005-05-04 05:45:49 51°16.651 2°49.963 19.9286 0.065656 0.3766 -0.14077
2005-05-04 05:45:54 51°16.649 2°49.965 19.9279 0.065656 0.376593 -0.17448
2005-05-04 05:45:59 51°16.647 2°49.969 19.9321 0.065656 0.3766 -0.14077
2005-05-04 05:46:05 51°16.645 2°49.972 19.9265 0.065656 0.3766 -0.14077
2005-05-04 05:46:09 51°16.643 2°49.974 19.9248 0.065656 0.3766 -0.17448
2005-05-04 05:46:13 51°16.642 2°49.976 19.912 0.065656 0.376613 -0.14077
2005-05-04 05:46:19 51°16.64 2°49.979 19.926 0.065656 0.376613 -0.17448
2005-05-04 05:46:24 51°16.638 2°49.982 19.9191 0.065656 0.376619 -0.17448
2005-05-04 05:46:29 51°16.636 2°49.985 19.9306 0.065656 0.376619 -0.14077
2005-05-04 05:46:34 51°16.634 2°49.987 19.9296 0.065656 0.376619 -0.14077
2005-05-04 05:46:39 51°16.632 2°49.989 19.9287 0.065656 0.376626 -0.17448
2005-05-04 05:46:44 51°16.631 2°49.992 19.9316 0.065656 0.376626 -0.14077
2005-05-04 05:46:49 51°16.628 2°49.994 19.9338 0.065656 0.376632 -0.17448
2005-05-04 05:46:54 51°16.626 2°49.996 19.9268 0.065656 0.376619 -0.17448
2005-05-04 05:46:59 51°16.625 2°49.998 19.9307 0.065656 0.376626 -0.14077
2005-05-04 05:47:04 51°16.623 2°50 19.9325 0.065656 0.376626 -0.14077
2005-05-04 05:47:09 51°16.62 2°50.003 19.9296 0.065656 0.376626 -0.17448
2005-05-04 05:47:15 51°16.618 2°50.005 19.9263 0.065656 0.376632 -0.14077
2005-05-04 05:47:19 51°16.617 2°50.007 19.9341 0.065656 0.376639 -0.17448
2005-05-04 05:47:24 51°16.614 2°50.009 19.9287 0.065656 0.376632 -0.14077
2005-05-04 05:47:29 51°16.612 2°50.01 19.9312 0.065656 0.376645 -0.14077
2005-05-04 05:47:34 51°16.61 2°50.012 19.9296 0.065656 0.376645 -0.14077
2005-05-04 05:47:39 51°16.608 2°50.014 19.9338 0.065656 0.376639 -0.14077
2005-05-04 05:47:44 51°16.606 2°50.015 19.9344 0.065656 0.376645 -0.107061
2005-05-04 05:47:49 51°16.604 2°50.017 19.9298 0.065656 0.376652 -0.17448
2005-05-04 05:47:54 51°16.602 2°50.019 19.9318 0.065656 0.376652 -0.14077
2005-05-04 05:47:59 51°16.6 2°50.02 19.9386 0.065656 0.376652 -0.17448
2005-05-04 05:48:05 51°16.597 2°50.022 19.9402 0.065656 0.376652 -0.17448
2005-05-04 05:48:09 51°16.595 2°50.024 19.9311 0.065656 0.376658 -0.107061
2005-05-04 05:48:15 51°16.593 2°50.025 19.9386 0.065656 0.376658 -0.17448
2005-05-04 05:48:19 51°16.591 2°50.026 19.9355 0.065656 0.376658 -0.107061
2005-05-04 05:48:25 51°16.588 2°50.028 19.9341 0.065656 0.376652 -0.14077
2005-05-04 05:48:29 51°16.586 2°50.029 19.9404 0.065656 0.376664 -0.17448
2005-05-04 05:48:34 51°16.584 2°50.031 19.9413 0.065656 0.376664 -0.17448
2005-05-04 05:48:39 51°16.582 2°50.032 19.9448 0.065656 0.376664 -0.14077
2005-05-04 05:48:44 51°16.579 2°50.034 19.9334 0.065656 0.376671 -0.14077
2005-05-04 05:48:50 51°16.577 2°50.035 19.938 0.065656 0.376671 -0.14077
2005-05-04 05:48:54 51°16.575 2°50.036 19.9454 0.065656 0.376671 -0.14077
2005-05-04 05:48:59 51°16.572 2°50.037 19.9258 0.065656 0.376684 -0.14077
2005-05-04 05:49:04 51°16.569 2°50.039 19.9424 0.065656 0.376684 -0.14077
2005-05-04 05:49:09 51°16.566 2°50.041 19.9257 0.065656 0.376677 -0.17448
2005-05-04 05:49:14 51°16.562 2°50.042 19.9421 0.065656 0.376677 -0.17448
2005-05-04 05:49:19 51°16.558 2°50.043 19.9381 0.065656 0.376677 -0.14077
2005-05-04 05:49:24 51°16.554 2°50.045 19.9379 0.065656 0.376684 -0.14077
2005-05-04 05:49:29 51°16.549 2°50.045 19.9286 0.065656 0.376684 -0.14077
2005-05-04 05:49:34 51°16.544 2°50.046 19.9311 0.065656 0.376684 -0.14077
2005-05-04 05:49:39 51°16.54 2°50.045 19.9226 0.065656 0.376684 -0.14077
2005-05-04 05:49:44 51°16.535 2°50.045 19.9303 0.065656 0.37669 -0.14077
2005-05-04 05:49:49 51°16.53 2°50.043 19.9284 0.065656 0.376697 -0.17448
2005-05-04 05:49:54 51°16.524 2°50.04 19.9304 0.065656 0.376703 -0.14077
2005-05-04 05:49:59 51°16.519 2°50.038 19.9415 0.065656 0.376703 -0.14077
2005-05-04 05:50:05 51°16.514 2°50.035 19.9354 0.065656 0.376703 -0.14077
2005-05-04 05:50:09 51°16.509 2°50.032 19.9347 0.065656 0.376703 -0.14077
2005-05-04 05:50:14 51°16.505 2°50.028 19.9348 0.065656 0.37671 -0.14077
2005-05-04 05:50:19 51°16.5 2°50.023 19.9387 0.065656 0.37671 -0.14077
2005-05-04 05:50:25 51°16.495 2°50.017 19.9373 0.065656 0.37671 -0.107061
2005-05-04 05:50:29 51°16.491 2°50.012 19.9395 0.065656 0.376716 -0.14077
2005-05-04 05:50:34 51°16.487 2°50.006 19.9397 0.065656 0.376716 -0.14077
2005-05-04 05:50:39 51°16.484 2°50 19.9366 0.065656 0.37671 -0.17448
2005-05-04 05:50:44 51°16.48 2°49.993 19.9493 0.065656 0.37671 -0.17448
2005-05-04 05:50:49 51°16.477 2°49.986 19.9422 0.065656 0.376716 -0.17448
2005-05-04 05:50:54 51°16.475 2°49.979 19.9446 0.065656 0.37671 -0.14077
2005-05-04 05:50:59 51°16.472 2°49.971 19.9371 0.065656 0.376716 -0.17448
2005-05-04 05:51:04 51°16.47 2°49.964 19.9455 0.065656 0.376716 -0.17448
2005-05-04 05:51:09 51°16.469 2°49.956 19.9443 0.065656 0.37671 -0.17448
2005-05-04 05:51:14 51°16.467 2°49.948 19.9459 0.065656 0.376716 -0.14077
2005-05-04 05:51:19 51°16.466 2°49.941 19.95 0.065656 0.37671 -0.14077
2005-05-04 05:51:24 51°16.466 2°49.932 19.9538 0.065656 0.376716 -0.107061
2005-05-04 05:51:29 51°16.466 2°49.924 19.9522 0.065656 0.376723 -0.14077
2005-05-04 05:51:35 51°16.466 2°49.916 19.9493 0.065656 0.376723 -0.14077
2005-05-04 05:51:39 51°16.466 2°49.909 19.9589 0.065656 0.376716 -0.17448
2005-05-04 05:51:44 51°16.467 2°49.903 19.9578 0.065656 0.37671 -0.107061
2005-05-04 05:51:49 51°16.468 2°49.895 19.9576 0.065656 0.376716 -0.14077
2005-05-04 05:51:54 51°16.47 2°49.889 19.9597 0.065656 0.376716 -0.14077
2005-05-04 05:51:59 51°16.471 2°49.883 19.9646 0.065656 0.37671 -0.14077
2005-05-04 05:52:04 51°16.474 2°49.878 19.9653 0.065656 0.37671 -0.14077
2005-05-04 05:52:09 51°16.476 2°49.872 19.9688 0.065656 0.376716 -0.17448
2005-05-04 05:52:14 51°16.48 2°49.869 19.9755 0.065656 0.376716 -0.17448
2005-05-04 05:52:19 51°16.484 2°49.865 19.9707 0.065656 0.376723 -0.17448
2005-05-04 05:52:24 51°16.488 2°49.86 19.9618 0.065656 0.376723 -0.17448
2005-05-04 05:52:29 51°16.491 2°49.855 19.9689 0.065656 0.376729 -0.14077
2005-05-04 05:52:34 51°16.494 2°49.851 19.9714 0.065656 0.376729 -0.14077
2005-05-04 05:52:39 51°16.497 2°49.846 19.9754 0.065656 0.376723 -0.14077
2005-05-04 05:52:44 51°16.501 2°49.84 19.9645 0.065656 0.376736 -0.14077
2005-05-04 05:52:49 51°16.505 2°49.835 19.9708 0.065656 0.376729 -0.17448
2005-05-04 05:52:54 51°16.509 2°49.829 19.9684 0.065656 0.376729 -0.107061
2005-05-04 05:52:59 51°16.512 2°49.825 19.972 0.065656 0.376729 -0.17448
2005-05-04 05:53:05 51°16.517 2°49.82 19.9669 0.065656 0.376729 -0.17448
2005-05-04 05:53:09 51°16.521 2°49.816 19.9803 0.065656 0.376736 -0.14077
2005-05-04 05:53:14 51°16.525 2°49.813 19.9755 0.065656 0.376736 -0.17448
2005-05-04 05:53:19 51°16.53 2°49.809 19.9746 0.065656 0.376742 -0.17448
2005-05-04 05:53:24 51°16.534 2°49.805 19.9766 0.065656 0.376742 -0.17448
2005-05-04 05:53:29 51°16.539 2°49.8 19.969 0.065656 0.376755 -0.17448
2005-05-04 05:53:35 51°16.543 2°49.795 19.9761 0.065656 0.376755 -0.17448
2005-05-04 05:53:39 51°16.547 2°49.792 19.9754 0.065656 0.376762 -0.14077
2005-05-04 05:53:44 51°16.552 2°49.788 19.9697 0.065656 0.376749 -0.17448
2005-05-04 05:53:49 51°16.556 2°49.785 19.9836 0.065656 0.376742 -0.14077
2005-05-04 05:53:54 51°16.56 2°49.782 19.9723 0.065656 0.376749 -0.14077
2005-05-04 05:53:59 51°16.565 2°49.779 19.9697 0.065656 0.376749 -0.14077
2005-05-04 05:54:04 51°16.57 2°49.777 19.9806 0.065656 0.376749 -0.14077
2005-05-04 05:54:09 51°16.575 2°49.776 19.9818 0.065656 0.376749 -0.14077
2005-05-04 05:54:15 51°16.58 2°49.776 19.9776 0.065656 0.376742 -0.14077
2005-05-04 05:54:19 51°16.584 2°49.777 19.9867 0.065656 0.376749 -0.107061
2005-05-04 05:54:25 51°16.59 2°49.778 19.9861 0.065656 0.376749 -0.17448
2005-05-04 05:54:29 51°16.594 2°49.779 19.9855 0.065656 0.376755 -0.14077
2005-05-04 05:54:34 51°16.598 2°49.781 19.9937 0.065656 0.376755 -0.14077
2005-05-04 05:54:39 51°16.602 2°49.782 19.9912 0.065656 0.376768 -0.17448
2005-05-04 05:54:44 51°16.608 2°49.783 19.9897 0.065656 0.376775 -0.14077
2005-05-04 05:54:49 51°16.613 2°49.784 19.9916 0.065656 0.376775 -0.14077
2005-05-04 05:54:54 51°16.619 2°49.785 19.9711 0.065656 0.376781 -0.14077
2005-05-04 05:54:59 51°16.625 2°49.787 19.9849 0.065656 0.376775 -0.107061
2005-05-04 05:55:04 51°16.632 2°49.79 19.9852 0.065656 0.376775 -0.107061
2005-05-04 05:55:09 51°16.637 2°49.793 19.9908 0.065656 0.376768 -0.107061
2005-05-04 05:55:14 51°16.642 2°49.796 19.9877 0.065656 0.376768 -0.107061
2005-05-04 05:55:19 51°16.647 2°49.798 19.9926 0.065656 0.376768 -0.17448
2005-05-04 05:55:25 51°16.651 2°49.8 19.9981 0.065656 0.376775 -0.14077
2005-05-04 05:55:29 51°16.655 2°49.802 19.9951 0.065656 0.376775 -0.14077
2005-05-04 05:55:34 51°16.659 2°49.803 19.9944 0.065656 0.376775 -0.14077
2005-05-04 05:55:39 51°16.663 2°49.804 19.9955 0.065656 0.376781 -0.17448
2005-05-04 05:55:44 51°16.666 2°49.804 19.9965 0.065656 0.376781 -0.14077
2005-05-04 05:55:49 51°16.67 2°49.804 20.0009 0.065656 0.376794 -0.14077
2005-05-04 05:55:55 51°16.674 2°49.803 19.9921 0.065656 0.376788 -0.14077
2005-05-04 05:55:59 51°16.676 2°49.802 20.0032 0.065656 0.376801 -0.17448
2005-05-04 05:56:04 51°16.679 2°49.8 20.001 0.065656 0.376801 -0.17448
2005-05-04 05:56:09 51°16.682 2°49.799 20.0045 0.065656 0.376788 -0.14077
2005-05-04 05:56:15 51°16.685 2°49.796 20.0066 0.065656 0.376788 -0.14077
2005-05-04 05:56:19 51°16.687 2°49.795 19.9945 0.065656 0.376788 -0.14077
2005-05-04 05:56:24 51°16.69 2°49.792 19.993 0.065656 0.376788 -0.107061
2005-05-04 05:56:29 51°16.692 2°49.79 19.9967 0.065656 0.376794 -0.14077
2005-05-04 05:56:34 51°16.693 2°49.787 20.0008 0.065656 0.376794 -0.14077
2005-05-04 05:56:39 51°16.694 2°49.785 20.0045 0.065656 0.376794 -0.14077
2005-05-04 05:56:45 51°16.695 2°49.783 20.0039 0.065656 0.376794 -0.14077
2005-05-04 05:56:49 51°16.695 2°49.782 20.0076 0.065656 0.376807 -0.14077
2005-05-04 05:56:54 51°16.696 2°49.781 19.9983 0.065656 0.376801 -0.14077
2005-05-04 05:56:59 51°16.695 2°49.781 20.0101 0.065656 0.376807 -0.14077
2005-05-04 05:57:04 51°16.695 2°49.781 20.0026 0.065656 0.376807 -0.14077
2005-05-04 05:57:09 51°16.694 2°49.781 20.0036 0.065656 0.376801 -0.14077
2005-05-04 05:57:14 51°16.693 2°49.781 20.0058 0.065656 0.376788 -0.14077
2005-05-04 05:57:19 51°16.691 2°49.782 20.0078 0.065656 0.376781 -0.14077
2005-05-04 05:57:25 51°16.689 2°49.782 20.012 0.065656 0.376768 -0.17448
2005-05-04 05:57:29 51°16.688 2°49.783 20.0107 0.065656 0.376768 -0.14077
2005-05-04 05:57:33 51°16.687 2°49.783 20.0099 0.065656 0.376768 -0.14077
2005-05-04 05:57:39 51°16.685 2°49.784 20.0084 0.065656 0.376775 -0.14077
2005-05-04 05:57:44 51°16.683 2°49.785 20.0153 0.065656 0.376775 -0.14077
2005-05-04 05:57:49 51°16.682 2°49.785 20 0.065656 0.376794 -0.14077
2005-05-04 05:57:55 51°16.68 2°49.786 20.0125 0.065656 0.376794 -0.17448
2005-05-04 05:57:59 51°16.678 2°49.786 20.0124 0.065656 0.376807 -0.14077
2005-05-04 05:58:04 51°16.677 2°49.787 20.0137 0.065656 0.376807 -0.14077
2005-05-04 05:58:09 51°16.675 2°49.788 20.0033 0.065656 0.376807 -0.14077
2005-05-04 05:58:14 51°16.674 2°49.788 20.0175 0.065656 0.376807 -0.14077
2005-05-04 05:58:19 51°16.672 2°49.788 20.0204 0.065656 0.376813 -0.14077
2005-05-04 05:58:25 51°16.67 2°49.789 20.0227 0.065656 0.376813 -0.14077
2005-05-04 05:58:29 51°16.669 2°49.789 20.0216 0.065656 0.376807 -0.14077
2005-05-04 05:58:33 51°16.668 2°49.789 20.0107 0.065656 0.376807 -0.14077
2005-05-04 05:58:39 51°16.667 2°49.79 20.0161 0.065656 0.376813 -0.14077
2005-05-04 05:58:44 51°16.665 2°49.79 20.018 0.065656 0.376813 -0.14077
2005-05-04 05:58:49 51°16.665 2°49.79 20.0181 0.065656 0.37682 -0.17448
2005-05-04 05:58:54 51°16.664 2°49.79 20.0222 0.065656 0.376826 -0.17448
2005-05-04 05:58:59 51°16.663 2°49.789 20.0219 0.065656 0.376833 -0.17448
2005-05-04 05:59:04 51°16.663 2°49.789 20.0168 0.065656 0.376833 -0.17448
2005-05-04 05:59:09 51°16.663 2°49.789 20.0241 0.065656 0.376839 -0.14077
2005-05-04 05:59:13 51°16.663 2°49.789 20.0235 0.065656 0.376846 -0.107061
2005-05-04 05:59:19 51°16.662 2°49.789 20.0261 0.065656 0.376846 -0.14077
2005-05-04 05:59:25 51°16.662 2°49.788 20.0217 0.065656 0.376846 -0.14077
2005-05-04 05:59:29 51°16.662 2°49.788 20.0233 0.065656 0.376852 -0.17448
2005-05-04 05:59:35 51°16.662 2°49.788 20.0268 0.065656 0.376852 -0.17448
2005-05-04 05:59:39 51°16.662 2°49.788 20.0237 0.065656 0.376852 -0.17448
2005-05-04 05:59:45 51°16.661 2°49.788 20.0244 0.065656 0.376852 -0.17448
2005-05-04 05:59:49 51°16.661 2°49.788 20.0257 0.065656 0.376852 -0.14077
2005-05-04 05:59:55 51°16.66 2°49.788 20.0327 0.065656 0.376852 -0.17448
2005-05-04 05:59:59 51°16.66 2°49.788 20.032 0.065656 0.376852 -0.17448
2005-05-04 06:00:04 51°16.66 2°49.788 20.0259 0.065656 0.376852 -0.17448
2005-05-04 06:00:09 51°16.659 2°49.787 20.0337 0.065656 0.376859 -0.14077
2005-05-04 06:00:15 51°16.659 2°49.788 20.0235 0.065656 0.376859 -0.107061
2005-05-04 06:00:19 51°16.659 2°49.788 20.0312 0.065656 0.376865 -0.14077
2005-05-04 06:00:24 51°16.658 2°49.788 20.028 0.065656 0.376865 -0.14077
2005-05-04 06:00:29 51°16.658 2°49.788 20.0308 0.065656 0.376865 -0.17448
2005-05-04 06:00:35 51°16.657 2°49.788 20.0328 0.065656 0.376865 -0.17448
2005-05-04 06:00:39 51°16.656 2°49.788 20.0364 0.065656 0.376878 -0.14077
2005-05-04 06:00:44 51°16.656 2°49.788 20.0242 0.065656 0.376878 -0.14077
2005-05-04 06:00:49 51°16.655 2°49.788 20.0347 0.065656 0.376878 -0.14077
2005-05-04 06:00:55 51°16.655 2°49.788 20.0353 0.065656 0.376878 -0.14077
2005-05-04 06:00:59 51°16.654 2°49.788 20.0364 0.065656 0.376885 -0.17448
2005-05-04 06:01:05 51°16.653 2°49.788 20.0338 0.065656 0.376885 -0.17448
2005-05-04 06:01:09 51°16.653 2°49.788 20.0398 0.065656 0.376878 -0.14077
2005-05-04 06:01:13 51°16.652 2°49.788 20.0391 0.065656 0.376885 -0.14077
2005-05-04 06:01:19 51°16.651 2°49.788 20.0324 0.065656 0.376891 -0.14077
2005-05-04 06:01:24 51°16.651 2°49.789 20.0389 0.065656 0.376898 -0.17448
2005-05-04 06:01:29 51°16.65 2°49.788 20.0461 0.065656 0.376898 -0.14077
2005-05-04 06:01:33 51°16.65 2°49.789 20.0441 0.065656 0.376898 -0.14077
2005-05-04 06:01:39 51°16.65 2°49.789 20.0393 0.065656 0.376898 -0.14077
2005-05-04 06:01:44 51°16.65 2°49.789 20.0395 0.065656 0.376911 -0.17448
2005-05-04 06:01:49 51°16.649 2°49.789 20.0427 0.065656 0.376911 -0.14077
2005-05-04 06:01:53 51°16.649 2°49.789 20.0482 0.065656 0.376917 -0.17448
2005-05-04 06:01:59 51°16.649 2°49.789 20.0414 0.065656 0.376911 -0.14077
2005-05-04 06:02:05 51°16.648 2°49.789 20.0424 0.065656 0.376911 -0.14077
2005-05-04 06:02:09 51°16.648 2°49.789 20.0465 0.065656 0.376917 -0.14077
2005-05-04 06:02:14 51°16.648 2°49.789 20.0458 0.065656 0.376924 -0.14077
2005-05-04 06:02:19 51°16.647 2°49.789 20.0481 0.065656 0.376917 -0.17448
2005-05-04 06:02:24 51°16.647 2°49.79 20.0479 0.065656 0.376917 -0.17448
2005-05-04 06:02:29 51°16.646 2°49.79 20.0493 0.065656 0.376924 -0.14077
2005-05-04 06:02:34 51°16.646 2°49.79 20.0472 0.065656 0.376924 -0.14077
2005-05-04 06:02:39 51°16.645 2°49.79 20.0488 0.065656 0.37693 -0.14077
2005-05-04 06:02:44 51°16.645 2°49.79 20.0497 0.065656 0.37693 -0.14077
2005-05-04 06:02:49 51°16.644 2°49.79 20.0522 0.065656 0.376937 -0.14077
2005-05-04 06:02:53 51°16.644 2°49.791 20.0506 0.065656 0.376943 -0.107061
2005-05-04 06:02:59 51°16.643 2°49.791 20.0495 0.065656 0.376943 -0.17448
2005-05-04 06:03:04 51°16.642 2°49.791 20.0544 0.065656 0.376943 -0.17448
2005-05-04 06:03:09 51°16.642 2°49.791 20.0608 0.065656 0.376943 -0.14077
2005-05-04 06:03:14 51°16.642 2°49.791 20.0563 0.065656 0.37695 -0.14077
2005-05-04 06:03:19 51°16.642 2°49.791 20.0648 0.065656 0.37695 -0.14077
2005-05-04 06:03:25 51°16.643 2°49.791 20.0589 0.065656 0.376956 -0.107061
2005-05-04 06:03:29 51°16.644 2°49.791 20.059 0.065656 0.376963 -0.14077
2005-05-04 06:03:34 51°16.645 2°49.79 20.0649 0.065656 0.376963 -0.14077
2005-05-04 06:03:39 51°16.647 2°49.789 20.0658 0.065656 0.376956 -0.14077
2005-05-04 06:03:44 51°16.649 2°49.788 20.056 0.065656 0.376969 -0.14077
2005-05-04 06:03:49 51°16.651 2°49.787 20.0609 0.065656 0.376969 -0.14077
2005-05-04 06:03:54 51°16.653 2°49.785 20.0667 0.065656 0.376976 -0.17448
2005-05-04 06:03:59 51°16.655 2°49.782 20.0653 0.065656 0.376976 -0.14077
2005-05-04 06:04:05 51°16.657 2°49.779 20.0595 0.065656 0.376976 -0.14077
2005-05-04 06:04:09 51°16.659 2°49.777 20.0618 0.065656 0.376989 -0.14077
2005-05-04 06:04:15 51°16.661 2°49.774 20.0572 0.065656 0.376989 -0.17448
2005-05-04 06:04:19 51°16.663 2°49.771 20.0623 0.065656 0.376989 -0.14077
2005-05-04 06:04:24 51°16.665 2°49.768 20.0576 0.065656 0.376989 -0.14077
2005-05-04 06:04:29 51°16.666 2°49.765 20.0528 0.065656 0.376989 -0.14077
2005-05-04 06:04:34 51°16.668 2°49.762 20.066 0.065656 0.376989 -0.14077
2005-05-04 06:04:39 51°16.67 2°49.76 20.0686 0.065656 0.376995 -0.17448
2005-05-04 06:04:44 51°16.672 2°49.757 20.0667 0.065656 0.376989 -0.14077
2005-05-04 06:04:49 51°16.673 2°49.754 20.0656 0.065656 0.376989 -0.14077
2005-05-04 06:04:53 51°16.674 2°49.751 20.0632 0.065656 0.376989 -0.14077
2005-05-04 06:04:59 51°16.675 2°49.748 20.0618 0.065656 0.377002 -0.14077
2005-05-04 06:05:04 51°16.676 2°49.746 20.068 0.065656 0.377002 -0.14077
2005-05-04 06:05:10 51°16.677 2°49.743 20.0598 0.065656 0.377002 -0.17448
2005-05-04 06:05:14 51°16.678 2°49.74 20.0703 0.065656 0.377002 -0.14077
2005-05-04 06:05:19 51°16.679 2°49.738 20.0678 0.065656 0.377002 -0.14077
2005-05-04 06:05:24 51°16.68 2°49.735 20.0674 0.065656 0.377002 -0.14077
2005-05-04 06:05:29 51°16.681 2°49.733 20.071 0.065656 0.377008 -0.14077
2005-05-04 06:05:35 51°16.682 2°49.73 20.0698 0.065656 0.377008 -0.14077
2005-05-04 06:05:39 51°16.682 2°49.728 20.0724 0.065656 0.377008 -0.14077
2005-05-04 06:05:45 51°16.683 2°49.726 20.0646 0.065656 0.377014 -0.14077
2005-05-04 06:05:49 51°16.684 2°49.724 20.0733 0.065656 0.377027 -0.14077
2005-05-04 06:05:53 51°16.684 2°49.722 20.0731 0.065656 0.377027 -0.14077
2005-05-04 06:05:59 51°16.685 2°49.72 20.0652 0.065656 0.377034 -0.14077
2005-05-04 06:06:04 51°16.686 2°49.717 20.0772 0.065656 0.377034 -0.14077
2005-05-04 06:06:09 51°16.686 2°49.715 20.0791 0.065656 0.377027 -0.14077
2005-05-04 06:06:14 51°16.687 2°49.712 20.0841 0.065656 0.377034 -0.14077
2005-05-04 06:06:19 51°16.687 2°49.708 20.0729 0.065656 0.37704 -0.14077
2005-05-04 06:06:24 51°16.688 2°49.704 20.0879 0.065656 0.377047 -0.14077
2005-05-04 06:06:29 51°16.688 2°49.7 20.0856 0.065656 0.377053 -0.14077
2005-05-04 06:06:34 51°16.689 2°49.696 20.0847 0.065656 0.377053 -0.14077
2005-05-04 06:06:39 51°16.689 2°49.692 20.0813 0.065656 0.37706 -0.14077
2005-05-04 06:06:45 51°16.689 2°49.686 20.0824 0.065656 0.377066 -0.14077
2005-05-04 06:06:49 51°16.688 2°49.682 20.0807 0.065656 0.377073 -0.107061
2005-05-04 06:06:54 51°16.688 2°49.677 20.0781 0.065656 0.377079 -0.14077
2005-05-04 06:06:59 51°16.687 2°49.672 20.0798 0.065656 0.377079 -0.107061
2005-05-04 06:07:04 51°16.686 2°49.667 20.0802 0.065656 0.377079 -0.107061
2005-05-04 06:07:09 51°16.684 2°49.661 20.0803 0.065656 0.377086 -0.14077
2005-05-04 06:07:15 51°16.682 2°49.655 20.08 0.065656 0.377092 -0.107061